FR2754 / 9H-QBG 7700 Squawk Report (2nd of December, 2021)

Time Lat Lon Altitude Heading Speed Vertical Rate
2021-12-02 18:11:46 GMT 50.349163 30.898632 0 272 5 0
2021-12-02 18:11:36 GMT 50.349144 30.899029 0 272 7 0
2021-12-02 18:11:25 GMT 50.349133 30.899605 0 275 9 0
2021-12-02 18:11:13 GMT 50.349003 30.900368 0 289 11 0
2021-12-02 18:11:04 GMT 50.348911 30.900999 0 272 11 0
2021-12-02 18:10:55 GMT 50.348866 30.901720 0 292 11 0
2021-12-02 18:10:45 GMT 50.348572 30.902277 0 348 11 0
2021-12-02 18:10:35 GMT 50.347969 30.902294 0 2 18 0
2021-12-02 18:10:24 GMT 50.346954 30.902203 0 2 26 0
2021-12-02 18:10:12 GMT 50.345661 30.902128 0 2 27 0
2021-12-02 18:08:36 GMT 50.342136 30.904613 0 205 26 0
2021-12-02 18:08:31 GMT 50.342754 30.904968 0 196 27 0
2021-12-02 18:08:22 GMT 50.344055 30.905247 0 182 36 0
2021-12-02 18:08:12 GMT 50.345833 30.905390 0 182 59 0
2021-12-02 18:08:03 GMT 50.348866 30.905617 725 182 98 0
2021-12-02 18:07:52 GMT 50.354095 30.906059 675 183 135 -256
2021-12-02 18:07:46 GMT 50.357574 30.906277 725 183 137 -384
2021-12-02 18:07:43 GMT 50.360092 30.906492 775 183 134 -576
2021-12-02 18:07:37 GMT 50.363297 30.906710 825 184 133 -704
2021-12-02 18:07:32 GMT 50.366455 30.906998 875 183 131 -704
2021-12-02 18:07:28 GMT 50.369247 30.907143 925 183 130 -704
2021-12-02 18:07:22 GMT 50.372780 30.907436 1,000 184 130 -704
2021-12-02 18:07:17 GMT 50.375427 30.907721 1,050 184 130 -768
2021-12-02 18:07:11 GMT 50.378952 30.907938 1,125 182 129 -704
2021-12-02 18:07:07 GMT 50.381378 30.908083 1,175 183 128 -640
2021-12-02 18:07:01 GMT 50.385269 30.908373 1,250 183 127 -704
2021-12-02 18:06:55 GMT 50.388702 30.908625 1,325 183 127 -640
2021-12-02 18:06:52 GMT 50.390854 30.908733 1,350 183 127 -576
2021-12-02 18:06:47 GMT 50.393448 30.908920 1,400 183 126 -576
2021-12-02 18:06:40 GMT 50.397125 30.909218 1,475 184 127 -768
2021-12-02 18:06:34 GMT 50.401272 30.909590 1,550 183 134 -768
2021-12-02 18:06:31 GMT 50.405457 30.909889 1,650 183 142 -960
2021-12-02 18:06:23 GMT 50.408295 30.910107 1,725 183 145 -1024
2021-12-02 18:06:20 GMT 50.410347 30.910257 1,775 184 148 -896
2021-12-02 18:06:16 GMT 50.413139 30.910480 1,825 184 153 -576
2021-12-02 18:06:10 GMT 50.418091 30.910902 1,900 182 160 -704
2021-12-02 18:06:06 GMT 50.419891 30.910999 1,925 182 163 -704
2021-12-02 18:06:01 GMT 50.424088 30.911192 2,000 183 167 -896
2021-12-02 18:05:57 GMT 50.427521 30.911407 2,075 184 168 -960
2021-12-02 18:05:51 GMT 50.431686 30.911770 2,150 184 168 -1088
2021-12-02 18:05:41 GMT 50.439789 30.912418 2,325 183 170 -832
2021-12-02 18:05:30 GMT 50.448074 30.912998 2,500 183 171 -896
2021-12-02 18:05:21 GMT 50.455124 30.913504 2,625 183 172 -640
2021-12-02 18:05:16 GMT 50.459881 30.913895 2,700 183 173 -832
2021-12-02 18:05:11 GMT 50.463837 30.914118 2,800 184 171 -1280
2021-12-02 18:05:05 GMT 50.467468 30.914488 2,900 184 171 -896
2021-12-02 18:05:00 GMT 50.471970 30.914877 2,975 183 172 -832
2021-12-02 18:04:55 GMT 50.476227 30.915094 3,050 183 173 -896
2021-12-02 18:04:49 GMT 50.480270 30.915379 3,125 183 173 -1024
2021-12-02 18:04:40 GMT 50.488312 30.916033 3,350 183 170 -1408
2021-12-02 18:04:30 GMT 50.496002 30.916538 3,500 183 170 -320
2021-12-02 18:04:19 GMT 50.504616 30.916939 3,575 182 176 -704
2021-12-02 18:04:12 GMT 50.511086 30.917234 3,675 184 178 -704
2021-12-02 18:04:02 GMT 50.519375 30.918941 3,775 192 177 -896
2021-12-02 18:03:59 GMT 50.520950 30.919575 3,850 197 177 -768
2021-12-02 18:03:50 GMT 50.537342 30.920204 4,000 175 190 -768
2021-12-02 18:03:40 GMT 50.537342 30.920204 4,125 130 215 -1216
2021-12-02 18:03:28 GMT 50.545486 30.908298 4,350 118 220 -1280
2021-12-02 18:03:24 GMT 50.547043 30.903458 4,425 113 223 -1216
2021-12-02 18:03:18 GMT 50.548561 30.894594 4,525 97 229 -1152
2021-12-02 18:03:14 GMT 50.549011 30.887266 4,625 93 231 -1216
2021-12-02 18:03:08 GMT 50.549305 30.877743 4,750 92 232 -1344
2021-12-02 18:02:58 GMT 50.549881 30.861029 4,975 93 233 -1408
2021-12-02 18:02:55 GMT 50.550098 30.854879 5,050 93 233 -1408
2021-12-02 18:02:49 GMT 50.550522 30.843248 5,200 93 235 -1216
2021-12-02 18:02:45 GMT 50.550797 30.835951 5,275 93 237 -1152
2021-12-02 18:02:38 GMT 50.551216 30.826225 5,375 93 237 -1344
2021-12-02 18:02:34 GMT 50.551540 30.817839 5,500 93 237 -1280
2021-12-02 18:02:28 GMT 50.551941 30.808626 5,600 93 238 -1024
2021-12-02 18:02:24 GMT 50.552170 30.802340 5,650 93 240 -832
2021-12-02 18:02:18 GMT 50.552628 30.791281 5,750 91 242 -1088
2021-12-02 18:02:10 GMT 50.552517 30.776268 5,925 85 243 -832
2021-12-02 18:02:07 GMT 50.552307 30.772560 5,950 84 244 -640
2021-12-02 18:01:57 GMT 50.550751 30.754202 6,025 81 249 -448
2021-12-02 18:01:53 GMT 50.549973 30.746107 6,050 81 251 -512
2021-12-02 18:01:48 GMT 50.549011 30.736277 6,100 81 255 -512
2021-12-02 18:01:44 GMT 50.548325 30.729050 6,125 81 259 -512
2021-12-02 18:01:39 GMT 50.547501 30.720955 6,175 81 260 -512
2021-12-02 18:01:35 GMT 50.546841 30.714062 6,350 80 265 -512
2021-12-02 18:01:26 GMT 50.545074 30.696739 6,275 80 267 -512
2021-12-02 18:01:17 GMT 50.543301 30.679396 6,375 80 271 -512
2021-12-02 18:01:14 GMT 50.542789 30.674421 6,375 80 271 -512
2021-12-02 18:01:09 GMT 50.541733 30.663855 6,425 80 274 -576
2021-12-02 18:01:06 GMT 50.541161 30.658239 6,475 80 276 -576
2021-12-02 18:00:59 GMT 50.539764 30.644411 6,550 80 280 -576
2021-12-02 18:00:56 GMT 50.539078 30.638050 6,550 80 284 -576
2021-12-02 18:00:48 GMT 50.537338 30.621208 6,625 80 286 -576
2021-12-02 18:00:44 GMT 50.536644 30.614368 6,650 80 287 -576
2021-12-02 18:00:41 GMT 50.536037 30.608356 6,700 81 289 -704
2021-12-02 18:00:38 GMT 50.535294 30.600859 6,725 80 291 -832
2021-12-02 18:00:34 GMT 50.534317 30.591431 6,825 80 292 -1280
2021-12-02 18:00:27 GMT 50.532921 30.577549 6,950 80 292 -1344
2021-12-02 18:00:23 GMT 50.532082 30.569458 7,050 80 293 -1344
2021-12-02 18:00:16 GMT 50.529659 30.545555 7,225 81 294 -1280
2021-12-02 18:00:12 GMT 50.529659 30.545555 7,300 81 294 -1280
2021-12-02 18:00:06 GMT 50.528450 30.533529 7,450 81 295 -1280
2021-12-02 18:00:03 GMT 50.527725 30.526163 7,500 81 296 -1280
2021-12-02 17:59:56 GMT 50.526352 30.512140 7,625 81 298 -1280
2021-12-02 17:59:52 GMT 50.525612 30.504580 7,700 81 298 -1344
2021-12-02 17:59:49 GMT 50.524727 30.495819 7,800 80 299 -1344
2021-12-02 17:59:45 GMT 50.524155 30.490240 7,875 80 299 -1344
2021-12-02 17:59:42 GMT 50.523422 30.483274 7,925 80 300 -1344
2021-12-02 17:59:36 GMT 50.521935 30.468874 8,100 80 302 -1280
2021-12-02 17:59:33 GMT 50.521179 30.461473 8,150 80 302 -1280
2021-12-02 17:59:25 GMT 50.518936 30.439936 8,325 80 303 -1344
2021-12-02 17:59:22 GMT 50.518936 30.439936 8,375 80 303 -1344
2021-12-02 17:59:18 GMT 50.517883 30.430105 8,475 80 304 -1344
2021-12-02 17:59:15 GMT 50.517288 30.424467 8,550 80 305 -1344
2021-12-02 17:59:12 GMT 50.516579 30.417282 8,600 80 305 -1344
2021-12-02 17:59:07 GMT 50.515228 30.404228 8,750 80 306 -1344
2021-12-02 17:59:04 GMT 50.514771 30.399748 8,775 80 306 -1344
2021-12-02 17:59:01 GMT 50.514175 30.394182 8,850 81 307 -1344
2021-12-02 17:58:55 GMT 50.512066 30.373039 9,025 81 308 -1280
2021-12-02 17:58:52 GMT 50.512066 30.373039 9,050 81 308 -1280
2021-12-02 17:58:45 GMT 50.510376 30.356165 9,225 81 310 -1280
2021-12-02 17:58:41 GMT 50.509689 30.349657 9,275 81 310 -1344
2021-12-02 17:58:35 GMT 50.508408 30.336432 9,475 80 312 -1344
2021-12-02 17:58:32 GMT 50.507458 30.327312 9,500 80 310 -1344
2021-12-02 17:58:26 GMT 50.505524 30.308605 9,650 80 312 -1344
2021-12-02 17:58:23 GMT 50.505524 30.308605 9,700 80 312 -1344
2021-12-02 17:58:20 GMT 50.504990 30.303411 9,750 80 313 -1344
2021-12-02 17:58:16 GMT 50.503281 30.286560 9,875 80 314 -1344
2021-12-02 17:58:13 GMT 50.503281 30.286560 9,925 80 314 -1408
2021-12-02 17:58:10 GMT 50.502548 30.279404 10,000 80 314 -1344
2021-12-02 17:58:05 GMT 50.501358 30.267984 10,100 80 314 -1408
2021-12-02 17:58:01 GMT 50.500427 30.258945 10,200 80 314 -1344
2021-12-02 17:57:52 GMT 50.498566 30.240519 10,375 80 315 -1408
2021-12-02 17:57:48 GMT 50.497604 30.231121 10,475 80 315 -1408
2021-12-02 17:57:45 GMT 50.496689 30.222160 10,575 80 316 -1408
2021-12-02 17:57:42 GMT 50.496239 30.217821 10,625 80 317 -1408
2021-12-02 17:57:39 GMT 50.495491 30.210770 10,700 80 317 -1408
2021-12-02 17:57:34 GMT 50.494263 30.198814 10,850 80 319 -1408
2021-12-02 17:57:30 GMT 50.493305 30.189241 10,900 80 320 -1472
2021-12-02 17:57:22 GMT 50.491489 30.171871 11,100 80 321 -1472
2021-12-02 17:57:19 GMT 50.490650 30.164152 11,175 80 321 -1472
2021-12-02 17:57:12 GMT 50.489044 30.148653 11,350 80 322 -1408
2021-12-02 17:57:09 GMT 50.488220 30.140558 11,425 80 323 -1408
2021-12-02 17:57:03 GMT 50.486938 30.128922 11,550 80 323 -1472
2021-12-02 17:57:00 GMT 50.485886 30.118729 11,650 80 323 -1472
2021-12-02 17:56:52 GMT 50.484146 30.102612 11,850 80 324 -1408
2021-12-02 17:56:49 GMT 50.483341 30.095190 11,900 80 325 -1408
2021-12-02 17:56:42 GMT 50.481667 30.079453 12,075 80 326 -1408
2021-12-02 17:56:39 GMT 50.480713 30.070663 12,125 80 326 -1408
2021-12-02 17:56:32 GMT 50.478928 30.053968 12,300 80 327 -1408
2021-12-02 17:56:28 GMT 50.478195 30.047029 12,375 80 327 -1408
2021-12-02 17:56:23 GMT 50.476868 30.034237 12,500 80 328 -1408
2021-12-02 17:56:19 GMT 50.475769 30.023539 12,600 80 329 -1408
2021-12-02 17:56:11 GMT 50.473892 30.006039 12,775 80 330 -1408
2021-12-02 17:56:07 GMT 50.472839 29.995640 12,875 80 331 -1408
2021-12-02 17:56:01 GMT 50.471378 29.981913 13,025 80 332 -1408
2021-12-02 17:55:57 GMT 50.470505 29.973450 13,100 80 333 -1408
2021-12-02 17:55:51 GMT 50.468864 29.957787 13,250 80 334 -1408
2021-12-02 17:55:47 GMT 50.468033 29.949598 13,350 80 334 -1472
2021-12-02 17:55:41 GMT 50.466385 29.933769 13,500 80 335 -1472
2021-12-02 17:55:36 GMT 50.465370 29.924086 13,600 80 335 -1472
2021-12-02 17:55:31 GMT 50.463791 29.909313 13,750 80 336 -1408
2021-12-02 17:55:26 GMT 50.462811 29.899885 13,850 80 336 -1408
2021-12-02 17:55:20 GMT 50.461182 29.884743 14,000 80 337 -1408
2021-12-02 17:55:16 GMT 50.460114 29.874647 14,100 80 337 -1408
2021-12-02 17:55:10 GMT 50.458603 29.860477 14,225 80 338 -1408
2021-12-02 17:55:06 GMT 50.457550 29.850794 14,325 80 339 -1472
2021-12-02 17:55:00 GMT 50.455856 29.835470 14,475 80 339 -1472
2021-12-02 17:54:56 GMT 50.454758 29.825432 14,575 80 340 -1472
2021-12-02 17:54:50 GMT 50.453175 29.810883 14,725 80 341 -1408
2021-12-02 17:54:46 GMT 50.452152 29.801455 14,825 80 341 -1408
2021-12-02 17:54:40 GMT 50.450546 29.786610 14,950 80 343 -1408
2021-12-02 17:54:36 GMT 50.449265 29.775103 15,075 80 344 -1472
2021-12-02 17:54:29 GMT 50.447708 29.761023 15,200 80 345 -1472
2021-12-02 17:54:25 GMT 50.446564 29.750759 15,300 80 346 -1472
2021-12-02 17:54:19 GMT 50.444962 29.735943 15,450 80 347 -1472
2021-12-02 17:54:15 GMT 50.443726 29.724773 15,575 80 347 -1472
2021-12-02 17:54:09 GMT 50.442238 29.711115 15,700 80 348 -1472
2021-12-02 17:54:05 GMT 50.440979 29.699980 15,825 80 349 -1472
2021-12-02 17:53:59 GMT 50.439468 29.685999 15,950 80 350 -1472
2021-12-02 17:53:49 GMT 50.436649 29.660563 16,200 80 352 -1472
2021-12-02 17:53:39 GMT 50.433884 29.634970 16,450 80 353 -1472
2021-12-02 17:53:29 GMT 50.431019 29.608601 16,700 80 355 -1472
2021-12-02 17:53:18 GMT 50.428223 29.582619 16,975 80 358 -1472
2021-12-02 17:53:08 GMT 50.425476 29.557083 17,200 80 359 -1536
2021-12-02 17:52:58 GMT 50.422638 29.531027 17,475 80 361 -1472
2021-12-02 17:52:48 GMT 50.419785 29.504942 17,725 80 363 -1472
2021-12-02 17:52:37 GMT 50.416771 29.477655 17,975 80 365 -1536
2021-12-02 17:52:28 GMT 50.413879 29.451599 18,225 80 367 -1536
2021-12-02 17:52:17 GMT 50.410950 29.424856 18,475 80 369 -1472
2021-12-02 17:52:07 GMT 50.408066 29.398836 18,725 80 371 -1536
2021-12-02 17:51:56 GMT 50.404633 29.368046 19,050 80 373 -1600
2021-12-02 17:51:49 GMT 50.402481 29.348312 19,900 79 379 -1536
2021-12-02 17:51:45 GMT 50.401688 29.341068 19,300 80 375 -1536
2021-12-02 17:51:36 GMT 50.398430 29.311598 19,600 80 377 -1536
2021-12-02 17:51:28 GMT 50.396427 29.293856 19,800 79 378 -1536
2021-12-02 17:51:25 GMT 50.395309 29.284281 19,850 79 379 -1536
2021-12-02 17:51:17 GMT 50.392147 29.256889 20,050 79 381 -1600
2021-12-02 17:51:14 GMT 50.392147 29.256889 20,200 79 384 -1536
2021-12-02 17:51:07 GMT 50.390030 29.238594 20,275 79 382 -1536
2021-12-02 17:51:04 GMT 50.388885 29.228765 20,475 79 384 -1536
2021-12-02 17:50:57 GMT 50.386871 29.211128 20,575 79 385 -1536
2021-12-02 17:50:54 GMT 50.385719 29.200844 20,650 79 384 -1536
2021-12-02 17:50:47 GMT 50.383667 29.182652 20,825 80 386 -1600
2021-12-02 17:50:43 GMT 50.382557 29.172710 20,925 80 386 -1600
2021-12-02 17:50:37 GMT 50.380554 29.155043 21,125 79 388 -1600
2021-12-02 17:50:34 GMT 50.378880 29.140419 21,225 79 388 -1600
2021-12-02 17:50:25 GMT 50.376781 29.122158 21,400 79 388 -1600
2021-12-02 17:50:22 GMT 50.375713 29.112581 21,500 79 388 -1664
2021-12-02 17:50:15 GMT 50.373459 29.092810 21,700 79 389 -1600
2021-12-02 17:50:11 GMT 50.372456 29.084078 21,775 79 389 -1600
2021-12-02 17:50:05 GMT 50.370407 29.066038 22,000 79 390 -1536
2021-12-02 17:50:01 GMT 50.369244 29.055943 22,050 79 390 -1536
2021-12-02 17:49:55 GMT 50.366962 29.036049 22,225 79 391 -1600
2021-12-02 17:49:52 GMT 50.366089 29.028481 22,300 79 391 -1600
2021-12-02 17:49:45 GMT 50.363983 29.010365 22,475 79 392 -1600
2021-12-02 17:49:41 GMT 50.362770 28.999748 22,575 79 393 -1600
2021-12-02 17:49:35 GMT 50.360779 28.982079 22,750 79 394 -1600
2021-12-02 17:49:31 GMT 50.359634 28.971958 22,825 79 394 -1600
2021-12-02 17:49:26 GMT 50.358032 28.957865 22,975 79 395 -1600
2021-12-02 17:49:21 GMT 50.356396 28.943481 23,100 79 395 -1600
2021-12-02 17:49:14 GMT 50.353867 28.921364 23,325 79 396 -1600
2021-12-02 17:49:10 GMT 50.352997 28.913790 23,375 79 397 -1600
2021-12-02 17:49:06 GMT 50.351692 28.902431 23,550 79 398 -1664
2021-12-02 17:49:03 GMT 50.350388 28.891369 23,600 79 398 -1664
2021-12-02 17:49:00 GMT 50.349701 28.885370 23,650 79 398 -1664
2021-12-02 17:48:54 GMT 50.347549 28.866865 23,875 79 400 -1600
2021-12-02 17:48:51 GMT 50.346432 28.857149 23,925 79 400 -1664
2021-12-02 17:48:43 GMT 50.344151 28.837702 24,125 79 401 -1664
2021-12-02 17:48:40 GMT 50.342846 28.826418 24,225 79 401 -1600
2021-12-02 17:48:33 GMT 50.340179 28.803696 24,425 79 402 -1600
2021-12-02 17:48:30 GMT 50.339630 28.798780 24,475 79 403 -1600
2021-12-02 17:48:23 GMT 50.337494 28.780319 24,650 79 403 -1600
2021-12-02 17:48:19 GMT 50.336098 28.768665 24,775 79 404 -1664
2021-12-02 17:48:15 GMT 50.334793 28.757307 24,900 79 405 -1664
2021-12-02 17:48:12 GMT 50.333359 28.745222 25,000 79 405 -1664
2021-12-02 17:48:09 GMT 50.332626 28.738934 25,050 79 405 -1664
2021-12-02 17:48:05 GMT 50.331253 28.727152 25,175 79 406 -1600
2021-12-02 17:48:02 GMT 50.330017 28.716599 25,250 79 406 -1600
2021-12-02 17:47:59 GMT 50.329330 28.710962 25,325 79 406 -1600
2021-12-02 17:47:53 GMT 50.327065 28.691910 25,500 79 407 -1600
2021-12-02 17:47:50 GMT 50.325764 28.680775 25,600 79 408 -1664
2021-12-02 17:47:45 GMT 50.324368 28.668972 25,750 79 409 -1664
2021-12-02 17:47:42 GMT 50.322876 28.656574 25,825 79 409 -1664
2021-12-02 17:47:39 GMT 50.322372 28.652126 25,875 79 410 -1664
2021-12-02 17:47:32 GMT 50.320129 28.633341 26,050 79 411 -1600
2021-12-02 17:47:29 GMT 50.318848 28.622494 26,150 79 411 -1600
2021-12-02 17:47:22 GMT 50.316605 28.603773 26,325 79 413 -1664
2021-12-02 17:47:19 GMT 50.315334 28.593254 26,425 79 414 -1664
2021-12-02 17:47:12 GMT 50.313080 28.574354 26,575 79 415 -1664
2021-12-02 17:47:08 GMT 50.311657 28.562300 26,725 79 415 -1664
2021-12-02 17:47:04 GMT 50.309830 28.546600 26,850 79 415 -1664
2021-12-02 17:47:01 GMT 50.308353 28.534389 26,975 79 416 -1600
2021-12-02 17:46:58 GMT 50.307907 28.530556 27,000 79 416 -1600
2021-12-02 17:46:52 GMT 50.305893 28.513569 27,150 79 418 -1600
2021-12-02 17:46:49 GMT 50.304382 28.501137 27,275 79 419 -1664
2021-12-02 17:46:42 GMT 50.302254 28.483244 27,450 79 421 -1664
2021-12-02 17:46:38 GMT 50.300903 28.471865 27,550 79 421 -1664
2021-12-02 17:46:34 GMT 50.299393 28.459433 27,700 79 422 -1664
2021-12-02 17:46:31 GMT 50.298660 28.453072 27,725 79 423 -1664
2021-12-02 17:46:28 GMT 50.297134 28.440708 27,850 79 423 -1728
2021-12-02 17:46:21 GMT 50.294991 28.422745 28,000 79 424 -1664
2021-12-02 17:46:18 GMT 50.293625 28.411585 28,125 79 425 -1664
2021-12-02 17:46:12 GMT 50.291336 28.392719 28,275 79 426 -1728
2021-12-02 17:46:07 GMT 50.289780 28.379854 28,400 79 427 -1728
2021-12-02 17:46:01 GMT 50.287537 28.361784 28,575 79 428 -1728
2021-12-02 17:45:57 GMT 50.286163 28.350365 28,675 79 429 -1728
2021-12-02 17:45:51 GMT 50.283680 28.330177 28,875 79 430 -1728
2021-12-02 17:45:48 GMT 50.282364 28.319502 28,975 79 430 -1664
2021-12-02 17:45:41 GMT 50.279984 28.299913 29,150 79 432 -1664
2021-12-02 17:45:37 GMT 50.278419 28.287346 29,275 79 432 -1664
2021-12-02 17:45:31 GMT 50.276043 28.268341 29,450 79 434 -1664
2021-12-02 17:45:27 GMT 50.274536 28.255823 29,550 79 435 -1664
2021-12-02 17:45:20 GMT 50.272133 28.236422 29,725 79 437 -1728
2021-12-02 17:45:16 GMT 50.270599 28.224312 29,850 79 438 -1664
2021-12-02 17:45:11 GMT 50.268311 28.205664 30,025 79 439 -1728
2021-12-02 17:45:07 GMT 50.266800 28.193592 30,125 79 440 -1792
2021-12-02 17:45:00 GMT 50.264374 28.174076 30,300 79 442 -1792
2021-12-02 17:44:56 GMT 50.262871 28.161819 30,425 79 443 -1792
2021-12-02 17:44:50 GMT 50.260357 28.141331 30,625 79 443 -1792
2021-12-02 17:44:46 GMT 50.259007 28.130419 30,725 79 444 -1792
2021-12-02 17:44:40 GMT 50.256493 28.109781 30,925 79 445 -1728
2021-12-02 17:44:36 GMT 50.254898 28.096378 31,050 79 446 -1728
2021-12-02 17:44:30 GMT 50.252609 28.077658 31,225 79 447 -1728
2021-12-02 17:44:26 GMT 50.251232 28.066059 31,325 79 448 -1728
2021-12-02 17:44:20 GMT 50.248810 28.046072 31,500 79 450 -1792
2021-12-02 17:44:16 GMT 50.247181 28.032879 31,625 79 451 -1792
2021-12-02 17:44:09 GMT 50.244717 28.012465 31,825 79 452 -1792
2021-12-02 17:44:06 GMT 50.243317 28.001181 31,925 79 453 -1792
2021-12-02 17:43:59 GMT 50.240799 27.980227 32,125 79 454 -1920
2021-12-02 17:43:55 GMT 50.239288 27.967794 32,250 79 455 -1920
2021-12-02 17:43:49 GMT 50.236801 27.946993 32,450 79 456 -1856
2021-12-02 17:43:45 GMT 50.235306 27.934980 32,575 79 457 -1856
2021-12-02 17:43:38 GMT 50.232697 27.913296 32,775 79 459 -1856
2021-12-02 17:43:35 GMT 50.231308 27.902229 32,875 79 459 -1856
2021-12-02 17:43:29 GMT 50.228760 27.881783 33,075 78 460 -1920
2021-12-02 17:43:25 GMT 50.227024 27.868010 33,225 78 460 -1920
2021-12-02 17:43:19 GMT 50.224411 27.847305 33,425 78 462 -1920
2021-12-02 17:43:14 GMT 50.222790 27.834827 33,525 78 463 -1920
2021-12-02 17:43:08 GMT 50.220322 27.815527 33,725 78 464 -1920
2021-12-02 17:43:04 GMT 50.218460 27.801201 33,850 78 464 -1920
2021-12-02 17:42:58 GMT 50.215805 27.780415 34,050 78 465 -1920
2021-12-02 17:42:55 GMT 50.214340 27.768740 34,175 78 466 -1856
2021-12-02 17:42:47 GMT 50.211521 27.746937 34,375 78 467 -1856
2021-12-02 17:42:43 GMT 50.209705 27.732239 34,500 78 469 -1856
2021-12-02 17:42:37 GMT 50.207333 27.713531 34,675 78 470 -1856
2021-12-02 17:42:33 GMT 50.205193 27.696384 34,850 78 471 -1920
2021-12-02 17:42:27 GMT 50.203003 27.679089 35,025 78 473 -2048
2021-12-02 17:42:23 GMT 50.201248 27.665598 35,150 78 474 -1984
2021-12-02 17:42:17 GMT 50.198868 27.646732 35,325 78 475 -2048
2021-12-02 17:42:13 GMT 50.196854 27.630688 35,500 78 475 -2048
2021-12-02 17:42:07 GMT 50.194336 27.610521 35,700 78 476 -2048
2021-12-02 17:42:03 GMT 50.192596 27.596788 35,825 79 477 -1984
2021-12-02 17:41:57 GMT 50.190308 27.578070 36,025 79 478 -1920
2021-12-02 17:41:53 GMT 50.188480 27.563288 36,175 78 479 -1856
2021-12-02 17:41:48 GMT 50.186291 27.546139 36,350 78 481 -1856
2021-12-02 17:41:45 GMT 50.185135 27.536869 36,400 78 482 -1856
2021-12-02 17:41:42 GMT 50.183990 27.527763 36,475 78 482 -1856
2021-12-02 17:41:37 GMT 50.181656 27.509403 36,650 78 484 -1920
2021-12-02 17:41:33 GMT 50.179367 27.492130 36,800 78 485 -1920
2021-12-02 17:41:27 GMT 50.177124 27.474928 36,950 78 487 -1856
2021-12-02 17:41:22 GMT 50.174793 27.457581 37,100 78 489 -1728
2021-12-02 17:41:17 GMT 50.172188 27.438429 37,250 78 490 -1920
2021-12-02 17:41:12 GMT 50.170094 27.422989 37,425 78 490 -2304
2021-12-02 17:41:06 GMT 50.167580 27.404430 37,625 78 490 -2432
2021-12-02 17:41:01 GMT 50.165203 27.387283 37,850 77 489 -2496
2021-12-02 17:40:56 GMT 50.162830 27.369987 38,050 78 489 -2624
2021-12-02 17:40:51 GMT 50.160175 27.350389 38,300 78 489 -2432
2021-12-02 17:40:47 GMT 50.158493 27.337454 38,500 78 489 -2176
2021-12-02 17:40:43 GMT 50.156918 27.325893 38,575 78 490 -2048
2021-12-02 17:40:40 GMT 50.155521 27.315205 38,675 78 489 -1792
2021-12-02 17:40:36 GMT 50.152214 27.290188 38,800 78 489 -1344
2021-12-02 17:40:33 GMT 50.152214 27.290188 38,850 78 489 -1152
2021-12-02 17:40:30 GMT 50.151005 27.280760 38,900 78 489 -960
2021-12-02 17:40:25 GMT 50.148632 27.262796 38,975 78 490 -384
2021-12-02 17:40:20 GMT 50.146164 27.244164 39,000 78 489 0
2021-12-02 17:40:16 GMT 50.144257 27.229912 39,000 78 490 -64
2021-12-02 17:40:13 GMT 50.142998 27.220186 39,000 79 489 -128
2021-12-02 17:40:10 GMT 50.141602 27.207567 39,000 80 489 -64
2021-12-02 17:40:04 GMT 50.140064 27.192202 39,000 82 488 0
2021-12-02 17:40:00 GMT 50.138531 27.172976 39,000 84 488 0
2021-12-02 17:39:55 GMT 50.137665 27.157913 39,000 85 487 -64
2021-12-02 17:39:49 GMT 50.136932 27.138182 39,000 86 486 0
2021-12-02 17:39:45 GMT 50.136383 27.122570 39,000 86 486 64
2021-12-02 17:39:39 GMT 50.135735 27.103197 39,000 87 486 64
2021-12-02 17:39:34 GMT 50.135193 27.087152 39,000 87 486 0
2021-12-02 17:39:29 GMT 50.134525 27.066378 39,000 87 487 -64
2021-12-02 17:39:24 GMT 50.134106 27.052052 39,000 87 486 64
2021-12-02 17:39:18 GMT 50.133453 27.030672 39,000 87 486 64
2021-12-02 17:39:15 GMT 50.132996 27.015308 39,000 87 486 -64
2021-12-02 17:39:08 GMT 50.132431 26.995487 39,000 87 486 -64
2021-12-02 17:39:04 GMT 50.131920 26.979750 39,000 87 486 0
2021-12-02 17:38:57 GMT 50.131222 26.956366 39,000 87 485 64
2021-12-02 17:38:54 GMT 50.130939 26.946344 39,000 87 485 64
2021-12-02 17:38:49 GMT 50.130295 26.925611 39,000 87 485 64
2021-12-02 17:38:44 GMT 50.129837 26.910938 39,000 87 485 128
2021-12-02 17:38:38 GMT 50.129128 26.889631 39,000 86 485 0
2021-12-02 17:38:33 GMT 50.128601 26.874582 39,000 87 485 -64
2021-12-02 17:38:29 GMT 50.128056 26.857267 39,000 86 485 0
2021-12-02 17:38:26 GMT 50.127594 26.844442 39,000 86 485 0
2021-12-02 17:38:23 GMT 50.127411 26.839310 39,000 86 485 0
2021-12-02 17:38:17 GMT 50.126724 26.817987 39,000 86 485 0
2021-12-02 17:38:14 GMT 50.126221 26.803967 39,000 86 485 -64
2021-12-02 17:38:08 GMT 50.125534 26.784090 39,025 86 485 -128
2021-12-02 17:38:03 GMT 50.125031 26.769274 39,025 86 485 -128
2021-12-02 17:37:56 GMT 50.124115 26.741590 39,025 86 485 0
2021-12-02 17:37:53 GMT 50.123817 26.733150 39,000 86 485 0
2021-12-02 17:37:47 GMT 50.122932 26.708061 39,000 86 485 64
2021-12-02 17:37:43 GMT 50.122559 26.697283 39,000 86 486 64
2021-12-02 17:37:37 GMT 50.121864 26.676214 39,000 86 487 192
2021-12-02 17:37:33 GMT 50.121368 26.662373 39,000 86 486 -64
2021-12-02 17:37:27 GMT 50.120605 26.641104 39,000 86 486 128
2021-12-02 17:37:22 GMT 50.120041 26.626017 39,000 86 486 192
2021-12-02 17:37:16 GMT 50.119209 26.602205 38,975 86 487 64
2021-12-02 17:37:13 GMT 50.118805 26.591251 38,975 86 487 -64
2021-12-02 17:37:05 GMT 50.117935 26.566097 39,025 86 487 -128
2021-12-02 17:37:02 GMT 50.117535 26.555513 39,025 86 487 -128
2021-12-02 17:36:55 GMT 50.116745 26.531982 39,025 86 486 128
2021-12-02 17:36:52 GMT 50.116325 26.519733 39,000 86 486 128
2021-12-02 17:36:45 GMT 50.115440 26.495312 39,000 86 486 0
2021-12-02 17:36:41 GMT 50.115021 26.482544 39,000 86 486 0
2021-12-02 17:36:35 GMT 50.114182 26.460794 39,000 86 487 -128
2021-12-02 17:36:32 GMT 50.113811 26.449957 39,000 86 486 -128
2021-12-02 17:36:24 GMT 50.112717 26.422482 39,025 86 486 0
2021-12-02 17:36:21 GMT 50.112411 26.414103 39,025 86 485 64
2021-12-02 17:36:15 GMT 50.111526 26.389811 39,000 86 485 64
2021-12-02 17:36:12 GMT 50.111111 26.378248 39,000 86 485 64
2021-12-02 17:36:06 GMT 50.110382 26.358297 39,000 86 485 0
2021-12-02 17:36:02 GMT 50.109787 26.342468 39,000 86 485 0
2021-12-02 17:35:54 GMT 50.108784 26.316339 39,000 86 485 64
2021-12-02 17:35:51 GMT 50.108459 26.308064 39,000 86 485 0
2021-12-02 17:35:45 GMT 50.107544 26.284790 39,000 86 486 -64
2021-12-02 17:35:41 GMT 50.107059 26.271873 39,000 86 486 -64
2021-12-02 17:35:35 GMT 50.106083 26.247601 39,000 86 486 -64
2021-12-02 17:35:31 GMT 50.105663 26.236761 39,000 86 486 0
2021-12-02 17:35:24 GMT 50.104660 26.212078 39,000 86 486 64
2021-12-02 17:35:20 GMT 50.104221 26.201576 39,000 86 486 0
2021-12-02 17:35:14 GMT 50.103291 26.177155 39,000 86 485 64
2021-12-02 17:35:11 GMT 50.102451 26.154736 39,000 86 485 0
2021-12-02 17:35:01 GMT 50.101521 26.130388 39,025 86 484 0
2021-12-02 17:34:53 GMT 50.100586 26.106407 39,000 86 484 0
2021-12-02 17:34:50 GMT 50.100128 26.095348 39,000 86 484 0
2021-12-02 17:34:44 GMT 50.099148 26.071150 39,000 86 484 0
2021-12-02 17:34:40 GMT 50.098728 26.060831 39,000 86 484 0
2021-12-02 17:34:30 GMT 50.097244 26.025093 39,000 86 484 -64
2021-12-02 17:34:23 GMT 50.096191 25.999508 39,000 86 484 0
2021-12-02 17:34:20 GMT 50.095779 25.989965 39,000 86 484 0
2021-12-02 17:34:14 GMT 50.094864 25.966928 39,000 86 484 0
2021-12-02 17:34:09 GMT 50.094223 25.952526 39,000 86 484 0
2021-12-02 17:34:03 GMT 50.093281 25.930555 39,000 86 484 128
2021-12-02 17:34:00 GMT 50.092163 25.903683 39,000 86 484 0
2021-12-02 17:33:53 GMT 50.091888 25.896439 39,000 86 484 -64
2021-12-02 17:33:49 GMT 50.091385 25.884512 39,000 86 484 0
2021-12-02 17:33:43 GMT 50.089920 25.848951 39,000 86 484 0
2021-12-02 17:33:39 GMT 50.089920 25.848951 39,000 86 484 -128
2021-12-02 17:33:32 GMT 50.088776 25.820835 39,025 86 483 -64
2021-12-02 17:33:29 GMT 50.087276 25.782389 39,025 86 485 0
2021-12-02 17:33:20 GMT 50.087276 25.782389 39,000 86 483 192
2021-12-02 17:33:17 GMT 50.086853 25.772552 39,000 86 483 192
2021-12-02 17:33:13 GMT 50.086166 25.756001 39,000 86 483 -64
2021-12-02 17:33:08 GMT 50.084435 25.714836 39,000 86 484 0
2021-12-02 17:33:00 GMT 50.084435 25.714836 39,000 86 484 0
2021-12-02 17:32:57 GMT 50.082851 25.678091 39,000 86 485 0
2021-12-02 17:32:51 GMT 50.082851 25.678091 39,000 86 485 0
2021-12-02 17:32:48 GMT 50.082550 25.670929 39,000 86 485 -64
2021-12-02 17:32:42 GMT 50.081680 25.650185 39,000 86 485 64
2021-12-02 17:32:37 GMT 50.080994 25.635586 39,000 85 484 64
2021-12-02 17:32:32 GMT 50.080059 25.614698 39,000 85 484 -128
2021-12-02 17:32:27 GMT 50.078156 25.572557 39,000 85 484 64
2021-12-02 17:32:20 GMT 50.078156 25.572557 39,000 86 484 64
2021-12-02 17:32:17 GMT 50.077873 25.565481 39,000 86 484 64
2021-12-02 17:32:11 GMT 50.076942 25.544622 39,000 85 484 64
2021-12-02 17:32:07 GMT 50.076290 25.529924 39,000 85 484 64
2021-12-02 17:32:01 GMT 50.075317 25.508448 39,000 85 484 -128
2021-12-02 17:31:58 GMT 50.074722 25.495438 39,000 85 484 0
2021-12-02 17:31:50 GMT 50.073532 25.469200 39,000 85 484 -128
2021-12-02 17:31:47 GMT 50.073120 25.460382 39,000 86 484 128
2021-12-02 17:31:40 GMT 50.072052 25.435947 39,000 86 485 -64
2021-12-02 17:31:37 GMT 50.071632 25.426001 38,975 86 484 64
2021-12-02 17:31:30 GMT 50.070564 25.400763 39,000 86 485 -128
2021-12-02 17:31:27 GMT 50.068653 25.358747 39,000 85 485 -64
2021-12-02 17:31:19 GMT 50.068653 25.358747 39,000 85 485 64
2021-12-02 17:31:16 GMT 50.068451 25.354712 39,000 85 485 64
2021-12-02 17:31:10 GMT 50.067398 25.332014 39,000 85 485 -64
2021-12-02 17:31:06 GMT 50.065842 25.299562 39,000 85 485 0
2021-12-02 17:31:01 GMT 50.065109 25.284166 39,000 85 485 0
2021-12-02 17:30:57 GMT 50.064148 25.263857 39,000 85 485 0
2021-12-02 17:30:50 GMT 50.063461 25.249689 39,000 85 485 0
2021-12-02 17:30:46 GMT 50.063461 25.249689 39,000 85 485 -64
2021-12-02 17:30:41 GMT 50.062462 25.228842 39,000 85 485 0
2021-12-02 17:30:36 GMT 50.061810 25.214514 39,000 85 485 0
2021-12-02 17:30:30 GMT 50.060833 25.193804 39,000 85 485 64
2021-12-02 17:30:25 GMT 50.060028 25.177050 39,000 85 484 64
2021-12-02 17:30:20 GMT 50.059158 25.158113 39,000 85 484 64
2021-12-02 17:30:18 GMT 50.058926 25.153049 39,000 85 484 64
2021-12-02 17:30:15 GMT 50.058380 25.141924 39,000 85 485 64
2021-12-02 17:30:11 GMT 50.057762 25.128628 39,000 85 485 64
2021-12-02 17:30:08 GMT 50.057236 25.117493 39,000 85 485 -128
2021-12-02 17:30:05 GMT 50.056690 25.106655 39,000 85 485 -64
2021-12-02 17:30:02 GMT 50.056091 25.094725 39,000 85 485 0
2021-12-02 17:29:56 GMT 50.054970 25.073103 39,000 85 484 0
2021-12-02 17:29:49 GMT 50.053898 25.051947 39,000 85 484 -64
2021-12-02 17:29:45 GMT 50.053207 25.038492 39,000 85 484 -128
2021-12-02 17:29:41 GMT 50.052475 25.024469 39,000 85 483 -128
2021-12-02 17:29:37 GMT 50.051804 25.011267 39,000 85 483 0
2021-12-02 17:29:32 GMT 50.050781 24.990210 39,000 85 483 192
2021-12-02 17:29:27 GMT 50.050034 24.976154 39,000 85 483 -64
2021-12-02 17:29:24 GMT 50.049522 24.966208 39,000 85 482 -128
2021-12-02 17:29:21 GMT 50.048870 24.953440 39,000 85 483 -128
2021-12-02 17:29:18 GMT 50.048264 24.941856 39,000 85 482 0
2021-12-02 17:29:14 GMT 50.047752 24.931765 39,000 85 482 0
2021-12-02 17:29:09 GMT 50.046844 24.914318 39,000 85 482 0
2021-12-02 17:29:04 GMT 50.045883 24.896175 39,000 85 482 -64
2021-12-02 17:28:58 GMT 50.044830 24.875431 39,000 85 482 64
2021-12-02 17:28:55 GMT 50.044167 24.861542 39,000 85 482 64
2021-12-02 17:28:51 GMT 50.043610 24.850332 39,000 85 481 64
2021-12-02 17:28:43 GMT 50.042305 24.824945 39,000 85 481 0
2021-12-02 17:28:38 GMT 50.041168 24.803154 39,000 85 480 -64
2021-12-02 17:28:34 GMT 50.040630 24.793098 39,000 85 480 64
2021-12-02 17:28:30 GMT 50.039234 24.765781 39,000 85 480 128
2021-12-02 17:28:27 GMT 50.039234 24.765781 39,000 85 480 64
2021-12-02 17:28:23 GMT 50.038696 24.755304 39,000 85 480 -64
2021-12-02 17:28:20 GMT 50.038116 24.744253 39,000 85 481 -128
2021-12-02 17:28:16 GMT 50.037464 24.730967 39,000 85 481 -128
2021-12-02 17:28:13 GMT 50.036911 24.720394 39,000 85 480 -128
2021-12-02 17:28:09 GMT 50.036133 24.705215 39,025 85 480 64
2021-12-02 17:28:06 GMT 50.035183 24.686649 39,000 85 480 192
2021-12-02 17:28:03 GMT 50.035183 24.686649 39,000 85 479 128
2021-12-02 17:27:59 GMT 50.034439 24.673557 39,000 85 480 0
2021-12-02 17:27:56 GMT 50.033295 24.652237 39,000 85 480 -192
2021-12-02 17:27:53 GMT 50.033295 24.652237 39,000 85 480 -128
2021-12-02 17:27:49 GMT 50.032532 24.637583 39,000 85 480 64
2021-12-02 17:27:45 GMT 50.030853 24.606110 39,000 85 480 128
2021-12-02 17:27:40 GMT 50.030342 24.597128 38,975 85 480 -192
2021-12-02 17:27:38 GMT 50.030342 24.597128 38,975 85 480 128
2021-12-02 17:27:34 GMT 50.029736 24.585993 38,975 85 480 64
2021-12-02 17:27:29 GMT 50.028946 24.570625 39,000 85 480 -256
2021-12-02 17:27:27 GMT 50.028481 24.561941 39,000 85 480 -192
2021-12-02 17:27:24 GMT 50.027847 24.550468 39,025 85 479 128
2021-12-02 17:27:20 GMT 50.027176 24.536924 39,000 85 479 192
2021-12-02 17:27:14 GMT 50.026062 24.515919 39,000 85 479 -128
2021-12-02 17:27:09 GMT 50.025375 24.502258 39,000 85 479 -128
2021-12-02 17:27:06 GMT 50.024849 24.492014 39,000 85 479 0
2021-12-02 17:27:03 GMT 50.024323 24.481441 39,000 85 478 -128
2021-12-02 17:27:00 GMT 50.023544 24.465830 39,000 85 478 0
2021-12-02 17:26:55 GMT 50.022812 24.451662 39,000 85 478 -128
2021-12-02 17:26:50 GMT 50.021942 24.434317 39,025 85 478 -128
2021-12-02 17:26:46 GMT 50.021313 24.421198 39,000 85 477 64
2021-12-02 17:26:42 GMT 50.020378 24.404123 39,000 85 477 64
2021-12-02 17:26:39 GMT 50.019470 24.387192 39,000 85 477 64
2021-12-02 17:26:37 GMT 50.019470 24.387192 39,000 85 477 0
2021-12-02 17:26:34 GMT 50.019215 24.381781 39,000 85 477 64
2021-12-02 17:26:29 GMT 50.018143 24.362616 39,000 85 477 0
2021-12-02 17:26:26 GMT 50.017731 24.354233 39,000 85 477 -64
2021-12-02 17:26:23 GMT 50.017090 24.342306 39,000 85 477 -64
2021-12-02 17:26:20 GMT 50.016449 24.330957 39,000 85 477 0
2021-12-02 17:26:18 GMT 50.016281 24.327887 39,000 85 477 0
2021-12-02 17:26:13 GMT 50.015396 24.310665 39,000 85 476 -192
2021-12-02 17:26:09 GMT 50.014572 24.295036 39,025 85 475 0
2021-12-02 17:26:04 GMT 50.013676 24.277411 39,000 85 475 320
2021-12-02 17:26:00 GMT 50.012886 24.263603 38,975 85 474 192
2021-12-02 17:25:58 GMT 50.012695 24.260124 38,975 85 475 128
2021-12-02 17:25:54 GMT 50.011581 24.240368 39,000 84 475 -192
2021-12-02 17:25:49 GMT 50.010773 24.226082 39,000 84 475 -128
2021-12-02 17:25:46 GMT 50.009995 24.212566 39,000 84 475 0
2021-12-02 17:25:43 GMT 50.009720 24.207781 39,000 84 475 0
2021-12-02 17:25:38 GMT 50.008759 24.190809 39,000 84 474 -64
2021-12-02 17:25:33 GMT 50.007706 24.173101 39,000 84 475 0
2021-12-02 17:25:29 GMT 50.006882 24.159586 39,000 84 475 64
2021-12-02 17:25:25 GMT 50.006058 24.145636 38,975 84 475 128
2021-12-02 17:25:22 GMT 50.005527 24.137630 38,975 84 475 64
2021-12-02 17:25:18 GMT 50.004646 24.122709 39,000 84 475 0
2021-12-02 17:25:15 GMT 50.003952 24.111738 39,000 84 475 0
2021-12-02 17:25:12 GMT 50.003448 24.103136 39,000 84 475 64
2021-12-02 17:25:07 GMT 50.002457 24.087078 39,000 84 475 0
2021-12-02 17:25:03 GMT 50.001293 24.067408 39,000 84 474 -64
2021-12-02 17:25:00 GMT 50.000828 24.059465 39,000 84 474 0
2021-12-02 17:24:57 GMT 50.000336 24.051168 39,000 84 474 0
2021-12-02 17:24:52 GMT 49.999329 24.034254 39,000 84 473 0
2021-12-02 17:24:47 GMT 49.998322 24.016619 39,000 84 473 0
2021-12-02 17:24:43 GMT 49.997543 24.003103 39,000 84 474 -64
2021-12-02 17:24:40 GMT 49.996902 23.991829 39,000 84 473 -128
2021-12-02 17:24:37 GMT 49.996452 23.983896 39,000 84 473 -128
2021-12-02 17:24:32 GMT 49.995522 23.968159 39,000 84 474 64
2021-12-02 17:24:29 GMT 49.994778 23.955095 39,000 84 473 0
2021-12-02 17:24:27 GMT 49.994522 23.951351 39,000 84 473 0
2021-12-02 17:24:23 GMT 49.993797 23.938616 39,000 84 475 64
2021-12-02 17:24:20 GMT 49.992962 23.924511 39,000 84 475 64
2021-12-02 17:24:16 GMT 49.992355 23.914490 39,000 84 474 64
2021-12-02 17:24:12 GMT 49.991329 23.897194 39,000 84 474 0
2021-12-02 17:24:09 GMT 49.990677 23.886011 39,000 84 474 0
2021-12-02 17:24:06 GMT 49.990173 23.877411 39,000 84 474 -64
2021-12-02 17:24:03 GMT 49.989716 23.870255 39,000 84 474 -64
2021-12-02 17:23:59 GMT 49.988865 23.855623 39,000 84 475 0
2021-12-02 17:23:57 GMT 49.988434 23.848139 39,000 84 475 0
2021-12-02 17:23:51 GMT 49.987198 23.827900 39,000 84 475 128
2021-12-02 17:23:48 GMT 49.986771 23.820808 39,000 84 475 64
2021-12-02 17:23:43 GMT 49.985275 23.795519 39,000 84 475 -64
2021-12-02 17:23:38 GMT 49.984673 23.785698 39,000 84 475 0
2021-12-02 17:23:36 GMT 49.984161 23.777384 39,000 84 475 64
2021-12-02 17:23:32 GMT 49.983170 23.761187 39,000 84 476 64
2021-12-02 17:23:29 GMT 49.982719 23.754223 39,000 84 476 64
2021-12-02 17:23:26 GMT 49.982025 23.742901 39,000 84 476 64
2021-12-02 17:23:21 GMT 49.980858 23.724306 39,000 84 477 0
2021-12-02 17:23:17 GMT 49.980019 23.711243 39,000 84 477 0
2021-12-02 17:23:12 GMT 49.978996 23.694168 39,000 84 477 -64
2021-12-02 17:23:08 GMT 49.978436 23.684593 39,000 84 477 -64
2021-12-02 17:23:06 GMT 49.977879 23.675835 39,000 84 477 -64
2021-12-02 17:23:01 GMT 49.976807 23.658539 39,000 84 477 -64
2021-12-02 17:22:58 GMT 49.976295 23.650076 39,000 84 477 -64
2021-12-02 17:22:56 GMT 49.975754 23.641495 39,000 84 477 0
2021-12-02 17:22:51 GMT 49.974667 23.623796 39,000 84 477 0
2021-12-02 17:22:48 GMT 49.973919 23.612068 39,000 84 477 0
2021-12-02 17:22:44 GMT 49.973053 23.598055 39,000 84 477 64
2021-12-02 17:22:39 GMT 49.972229 23.584394 39,000 84 477 64
2021-12-02 17:22:31 GMT 49.970261 23.552736 39,000 84 477 -128
2021-12-02 17:22:28 GMT 49.969757 23.544424 39,000 84 477 -128
2021-12-02 17:22:21 GMT 49.968521 23.523825 39,000 84 478 0
2021-12-02 17:22:18 GMT 49.967880 23.513489 39,000 84 478 -64
2021-12-02 17:22:09 GMT 49.965820 23.480097 39,000 84 478 64
2021-12-02 17:22:06 GMT 49.965263 23.470955 39,000 84 478 64
2021-12-02 17:21:59 GMT 49.963760 23.447208 39,000 84 478 0
2021-12-02 17:21:57 GMT 49.963120 23.436512 39,000 84 478 0
2021-12-02 17:21:50 GMT 49.961655 23.413889 39,000 84 479 64
2021-12-02 17:21:46 GMT 49.960934 23.402214 39,000 84 479 0
2021-12-02 17:21:42 GMT 49.959915 23.386786 39,000 84 479 -64
2021-12-02 17:21:39 GMT 49.959274 23.376593 39,000 84 479 -64
2021-12-02 17:21:35 GMT 49.958370 23.362129 39,000 84 478 64
2021-12-02 17:21:30 GMT 49.956482 23.333155 39,000 84 479 -64
2021-12-02 17:21:27 GMT 49.956482 23.333155 39,000 84 478 0
2021-12-02 17:21:24 GMT 49.956139 23.327761 39,000 84 477 0
2021-12-02 17:21:21 GMT 49.955475 23.317614 39,000 84 478 128
2021-12-02 17:21:18 GMT 49.954788 23.307570 39,000 84 478 192
2021-12-02 17:21:14 GMT 49.953827 23.292824 39,000 84 478 -64
2021-12-02 17:21:10 GMT 49.953049 23.281475 39,000 84 478 0
2021-12-02 17:21:07 GMT 49.952408 23.271500 39,000 84 478 -64
2021-12-02 17:21:04 GMT 49.951668 23.260284 39,000 84 477 -64
2021-12-02 17:21:01 GMT 49.950897 23.248444 39,000 84 478 -64
2021-12-02 17:20:58 GMT 49.950180 23.238014 39,000 84 478 -64
2021-12-02 17:20:53 GMT 49.949249 23.223686 39,000 83 477 -64
2021-12-02 17:20:48 GMT 49.947739 23.202330 39,000 83 477 64
2021-12-02 17:20:45 GMT 49.947388 23.197111 39,000 83 477 -64
2021-12-02 17:20:41 GMT 49.946091 23.178188 39,000 83 477 -64
2021-12-02 17:20:38 GMT 49.945618 23.170687 39,000 84 477 -128
2021-12-02 17:20:35 GMT 49.944965 23.161110 39,000 91 471 64
2021-12-02 17:20:30 GMT 49.944122 23.144218 39,000 87 475 0
2021-12-02 17:20:26 GMT 49.943573 23.128462 39,000 88 475 64
2021-12-02 17:20:23 GMT 49.943436 23.120295 39,000 89 474 128
2021-12-02 17:20:18 GMT 49.943428 23.103432 39,000 91 473 64
2021-12-02 17:20:16 GMT 49.943474 23.098385 39,000 91 472 64
2021-12-02 17:20:13 GMT 49.943619 23.088131 39,000 91 472 -128
2021-12-02 17:20:08 GMT 49.944035 23.064756 39,000 91 472 0
2021-12-02 17:20:04 GMT 49.944221 23.051840 39,000 91 472 0
2021-12-02 17:20:00 GMT 49.944397 23.041222 39,000 91 472 64
2021-12-02 17:19:57 GMT 49.944592 23.030537 39,000 91 472 64
2021-12-02 17:19:53 GMT 49.944763 23.018887 39,000 91 472 -64
2021-12-02 17:19:49 GMT 49.944992 23.003780 39,000 91 472 -64
2021-12-02 17:19:46 GMT 49.945129 22.995758 39,000 91 472 0
2021-12-02 17:19:42 GMT 49.945312 22.983471 39,000 91 472 0
2021-12-02 17:19:39 GMT 49.945572 22.969072 39,000 91 472 -128
2021-12-02 17:19:36 GMT 49.945709 22.960905 39,000 91 472 -128
2021-12-02 17:19:32 GMT 49.945908 22.948343 39,000 91 472 128
2021-12-02 17:19:26 GMT 49.946365 22.921095 39,000 91 472 -128
2021-12-02 17:19:23 GMT 49.946732 22.899265 39,000 91 472 64
2021-12-02 17:19:17 GMT 49.946732 22.899265 39,000 91 472 192
2021-12-02 17:19:15 GMT 49.946823 22.891678 39,000 91 472 128
2021-12-02 17:19:12 GMT 49.947006 22.881269 39,000 91 473 -64
2021-12-02 17:19:08 GMT 49.947189 22.868042 39,000 91 473 -64
2021-12-02 17:19:05 GMT 49.947372 22.858068 39,000 91 473 64
2021-12-02 17:19:01 GMT 49.947666 22.841911 39,000 91 473 128
2021-12-02 17:18:57 GMT 49.947758 22.832708 38,975 91 473 128
2021-12-02 17:18:55 GMT 49.947922 22.822363 38,975 91 473 128
2021-12-02 17:18:51 GMT 49.948177 22.808582 39,000 91 473 -64
2021-12-02 17:18:48 GMT 49.948318 22.799154 39,000 91 473 -64
2021-12-02 17:18:45 GMT 49.948517 22.788679 39,000 91 473 -128
2021-12-02 17:18:42 GMT 49.948654 22.778706 39,000 91 473 -128
2021-12-02 17:18:38 GMT 49.948875 22.766270 39,000 91 473 -128
2021-12-02 17:18:35 GMT 49.949062 22.754616 39,000 91 472 -64
2021-12-02 17:18:31 GMT 49.949295 22.739531 39,000 91 472 64
2021-12-02 17:18:28 GMT 49.949432 22.731218 39,000 91 472 64
2021-12-02 17:18:25 GMT 49.949619 22.719875 39,000 91 472 0
2021-12-02 17:18:21 GMT 49.949753 22.708523 39,000 91 472 -128
2021-12-02 17:18:18 GMT 49.949947 22.697086 39,000 91 471 -128
2021-12-02 17:18:14 GMT 49.950073 22.685467 39,000 91 471 -64
2021-12-02 17:18:10 GMT 49.950317 22.669621 39,000 91 471 64
2021-12-02 17:18:07 GMT 49.950363 22.662865 39,000 91 471 0
2021-12-02 17:18:04 GMT 49.950531 22.651352 39,000 91 471 0
2021-12-02 17:18:01 GMT 49.950645 22.642006 39,000 91 471 0
2021-12-02 17:17:58 GMT 49.950806 22.629522 39,000 91 471 0
2021-12-02 17:17:52 GMT 49.951061 22.607191 39,000 91 471 0
2021-12-02 17:17:48 GMT 49.951202 22.597095 39,000 91 471 0
2021-12-02 17:17:46 GMT 49.951344 22.586926 39,000 91 471 0
2021-12-02 17:17:41 GMT 49.951492 22.572929 38,975 90 472 192
2021-12-02 17:17:38 GMT 49.951622 22.560797 39,000 90 472 128
2021-12-02 17:17:34 GMT 49.951767 22.547993 38,975 90 472 192
2021-12-02 17:17:30 GMT 49.951946 22.531919 38,975 90 473 64
2021-12-02 17:17:27 GMT 49.951996 22.525515 38,975 90 473 0
2021-12-02 17:17:23 GMT 49.952133 22.513083 39,000 91 473 -64
2021-12-02 17:17:20 GMT 49.952274 22.501633 39,000 91 473 -64
2021-12-02 17:17:16 GMT 49.952454 22.489882 39,000 91 472 -64
2021-12-02 17:17:13 GMT 49.952591 22.478605 39,000 91 472 0
2021-12-02 17:17:10 GMT 49.952740 22.467041 39,000 91 472 0
2021-12-02 17:17:07 GMT 49.952866 22.458441 39,000 91 472 64
2021-12-02 17:17:02 GMT 49.953064 22.440689 39,000 91 471 -64
2021-12-02 17:16:58 GMT 49.953232 22.428011 39,000 91 471 -64
2021-12-02 17:16:53 GMT 49.953484 22.411070 39,000 91 471 0
2021-12-02 17:16:50 GMT 49.953598 22.399967 39,000 91 471 0
2021-12-02 17:16:47 GMT 49.953735 22.388981 39,000 91 471 0
2021-12-02 17:16:41 GMT 49.954010 22.369537 39,000 91 472 -128
2021-12-02 17:16:38 GMT 49.954136 22.359406 39,000 91 472 -128
2021-12-02 17:16:35 GMT 49.954227 22.349236 39,000 91 472 -128
2021-12-02 17:16:32 GMT 49.954468 22.326748 39,000 91 472 0
2021-12-02 17:16:28 GMT 49.954468 22.326748 39,000 91 472 0
2021-12-02 17:16:26 GMT 49.954605 22.315689 39,000 91 472 0
2021-12-02 17:16:21 GMT 49.954834 22.298683 39,000 90 472 128
2021-12-02 17:16:18 GMT 49.954880 22.291620 39,000 90 473 192
2021-12-02 17:16:15 GMT 49.954971 22.284033 38,975 90 473 64
2021-12-02 17:16:12 GMT 49.955063 22.271601 38,975 90 473 64
2021-12-02 17:16:08 GMT 49.955246 22.257000 38,975 90 473 64
2021-12-02 17:16:05 GMT 49.955345 22.243826 38,975 90 474 0
2021-12-02 17:16:01 GMT 49.955395 22.237293 39,000 90 473 -192
2021-12-02 17:15:58 GMT 49.955532 22.225639 39,000 90 473 -192
2021-12-02 17:15:55 GMT 49.955624 22.213242 39,025 90 472 -64
2021-12-02 17:15:52 GMT 49.955750 22.203587 39,025 90 472 -192
2021-12-02 17:15:48 GMT 49.955856 22.190676 39,025 90 472 64
2021-12-02 17:15:46 GMT 49.955933 22.183493 39,025 90 472 128
2021-12-02 17:15:43 GMT 49.956024 22.173374 39,000 90 472 128
2021-12-02 17:15:40 GMT 49.956116 22.163471 39,000 90 472 128
2021-12-02 17:15:37 GMT 49.956184 22.153412 39,000 90 472 64
2021-12-02 17:15:34 GMT 49.956326 22.143093 39,000 90 472 64
2021-12-02 17:15:30 GMT 49.956554 22.118523 39,000 90 473 0
2021-12-02 17:15:27 GMT 49.956554 22.118523 39,000 90 473 -64
2021-12-02 17:15:24 GMT 49.956696 22.108278 39,000 90 473 0
2021-12-02 17:15:21 GMT 49.956757 22.098131 39,000 90 473 0
2021-12-02 17:15:17 GMT 49.956882 22.086082 39,000 90 473 0
2021-12-02 17:15:13 GMT 49.956974 22.074947 39,000 90 473 -64
2021-12-02 17:15:08 GMT 49.957214 22.054548 39,000 90 473 64
2021-12-02 17:15:04 GMT 49.957352 22.039080 39,000 90 473 64
2021-12-02 17:15:01 GMT 49.957439 22.030928 39,000 90 474 0
2021-12-02 17:14:58 GMT 49.957535 22.021877 39,000 90 474 -64
2021-12-02 17:14:56 GMT 49.957581 22.016457 39,000 90 474 -64
2021-12-02 17:14:52 GMT 49.957722 22.001608 39,000 90 474 0
2021-12-02 17:14:48 GMT 49.957859 21.987354 39,000 90 474 0
2021-12-02 17:14:46 GMT 49.957901 21.982052 39,000 90 474 0
2021-12-02 17:14:43 GMT 49.957993 21.969114 39,000 90 474 64
2021-12-02 17:14:38 GMT 49.958176 21.946131 39,000 90 474 0
2021-12-02 17:14:35 GMT 49.958176 21.946131 39,000 90 474 0
2021-12-02 17:14:32 GMT 49.958267 21.930662 39,000 90 474 -64
2021-12-02 17:14:28 GMT 49.958313 21.918953 39,000 90 474 -64
2021-12-02 17:14:25 GMT 49.958370 21.908520 39,000 90 474 -64
2021-12-02 17:14:22 GMT 49.958405 21.899584 39,025 90 474 -64
2021-12-02 17:14:18 GMT 49.958588 21.871393 39,000 90 474 0
2021-12-02 17:14:14 GMT 49.958588 21.871393 39,000 90 474 -64
2021-12-02 17:14:09 GMT 49.958679 21.854048 39,000 90 474 0
2021-12-02 17:14:04 GMT 49.958744 21.838816 39,000 90 474 -64
2021-12-02 17:14:01 GMT 49.958790 21.829092 39,000 90 474 0
2021-12-02 17:13:57 GMT 49.958885 21.815580 39,000 90 474 64
2021-12-02 17:13:54 GMT 49.958908 21.807356 39,000 90 474 64
2021-12-02 17:13:51 GMT 49.959091 21.780396 39,000 90 476 -64
2021-12-02 17:13:47 GMT 49.959091 21.780396 39,000 90 476 -64
2021-12-02 17:13:44 GMT 49.959209 21.770151 39,000 90 475 128
2021-12-02 17:13:40 GMT 49.959305 21.754414 39,000 90 476 -64
2021-12-02 17:13:36 GMT 49.959396 21.745506 39,000 90 476 64
2021-12-02 17:13:33 GMT 49.959457 21.734209 39,000 90 476 -64
2021-12-02 17:13:30 GMT 49.959538 21.721901 39,000 90 476 -64
2021-12-02 17:13:27 GMT 49.959629 21.709578 39,000 90 476 -64
2021-12-02 17:13:23 GMT 49.959675 21.697775 39,000 90 476 -64
2021-12-02 17:13:19 GMT 49.959770 21.684116 39,000 90 476 0
2021-12-02 17:13:16 GMT 49.959778 21.675375 39,000 90 476 0
2021-12-02 17:13:13 GMT 49.959862 21.664371 39,000 90 476 -128
2021-12-02 17:13:10 GMT 49.959953 21.655613 39,000 90 476 0
2021-12-02 17:13:06 GMT 49.960052 21.640753 39,000 90 476 -64
2021-12-02 17:13:03 GMT 49.960098 21.630779 39,000 90 476 -64
2021-12-02 17:13:00 GMT 49.960140 21.619089 39,000 90 476 64
2021-12-02 17:12:57 GMT 49.960236 21.607658 39,000 90 476 128
2021-12-02 17:12:53 GMT 49.960327 21.597530 39,000 90 476 0
2021-12-02 17:12:50 GMT 49.960419 21.585461 39,000 90 476 -64
2021-12-02 17:12:47 GMT 49.960464 21.575775 39,000 90 476 -128
2021-12-02 17:12:44 GMT 49.960556 21.564356 39,000 90 476 -64
2021-12-02 17:12:40 GMT 49.960606 21.552132 39,000 90 476 64
2021-12-02 17:12:36 GMT 49.960648 21.538336 39,000 90 476 0
2021-12-02 17:12:33 GMT 49.960701 21.529863 39,000 90 476 -64
2021-12-02 17:12:30 GMT 49.960739 21.521349 39,000 90 476 -64
2021-12-02 17:12:26 GMT 49.960785 21.506460 39,000 90 476 64
2021-12-02 17:12:23 GMT 49.960831 21.492872 39,000 90 476 64
2021-12-02 17:12:20 GMT 49.960884 21.481388 39,000 90 476 64
2021-12-02 17:12:16 GMT 49.960922 21.471695 39,000 90 476 -64
2021-12-02 17:12:12 GMT 49.960968 21.459478 39,000 90 476 -64
2021-12-02 17:12:08 GMT 49.961025 21.444941 39,000 90 476 0
2021-12-02 17:12:05 GMT 49.961071 21.432026 39,000 90 476 -64
2021-12-02 17:12:01 GMT 49.961121 21.421928 39,000 90 476 0
2021-12-02 17:11:58 GMT 49.961151 21.408667 39,000 90 476 0
2021-12-02 17:11:55 GMT 49.961212 21.387783 39,000 90 476 0
2021-12-02 17:11:52 GMT 49.961212 21.387783 39,000 90 476 0
2021-12-02 17:11:49 GMT 49.961212 21.377539 39,000 90 476 64
2021-12-02 17:11:46 GMT 49.961304 21.355640 39,000 90 477 0
2021-12-02 17:11:42 GMT 49.961304 21.346807 39,000 90 477 0
2021-12-02 17:11:39 GMT 49.961304 21.346807 39,000 90 477 0
2021-12-02 17:11:36 GMT 49.961304 21.335970 39,000 90 476 64
2021-12-02 17:11:33 GMT 49.961349 21.322086 39,000 90 476 128
2021-12-02 17:11:30 GMT 49.961334 21.312248 39,000 90 476 192
2021-12-02 17:11:27 GMT 49.961349 21.293434 39,000 90 476 128
2021-12-02 17:11:24 GMT 49.961380 21.282469 39,000 89 477 0
2021-12-02 17:11:20 GMT 49.961380 21.282469 39,000 89 477 0
2021-12-02 17:11:17 GMT 49.961349 21.267973 39,000 89 477 0
2021-12-02 17:11:14 GMT 49.961288 21.260641 39,000 89 477 0
2021-12-02 17:11:11 GMT 49.961288 21.246258 39,000 89 476 -64
2021-12-02 17:11:08 GMT 49.961304 21.237984 39,000 90 476 -64
2021-12-02 17:11:04 GMT 49.961258 21.224323 39,000 89 475 0
2021-12-02 17:11:01 GMT 49.961258 21.215416 39,000 89 475 -64
2021-12-02 17:10:58 GMT 49.961258 21.204948 39,000 89 475 0
2021-12-02 17:10:55 GMT 49.961243 21.195301 39,000 90 475 0
2021-12-02 17:10:52 GMT 49.961258 21.184980 39,000 90 475 0
2021-12-02 17:10:48 GMT 49.961243 21.160028 39,000 90 475 -64
2021-12-02 17:10:45 GMT 49.961243 21.160028 39,000 90 476 0
2021-12-02 17:10:42 GMT 49.961258 21.145638 39,000 90 475 -64
2021-12-02 17:10:39 GMT 49.961258 21.139551 39,000 90 475 0
2021-12-02 17:10:34 GMT 49.961288 21.125696 39,000 90 475 0
2021-12-02 17:10:31 GMT 49.961304 21.111713 39,000 90 476 0
2021-12-02 17:10:27 GMT 49.961304 21.097834 39,000 90 476 0
2021-12-02 17:10:24 GMT 49.961334 21.089413 39,000 90 476 0
2021-12-02 17:10:20 GMT 49.961349 21.076529 39,000 90 476 0
2021-12-02 17:10:17 GMT 49.961399 21.066359 39,000 90 476 128
2021-12-02 17:10:14 GMT 49.961399 21.056337 39,000 90 476 64
2021-12-02 17:10:10 GMT 49.961399 21.030653 39,000 90 476 128
2021-12-02 17:10:07 GMT 49.961399 21.030653 39,000 90 476 0
2021-12-02 17:10:04 GMT 49.961426 21.022411 39,000 90 476 64
2021-12-02 17:10:01 GMT 49.961445 21.010164 39,000 90 476 0
2021-12-02 17:09:58 GMT 49.961426 21.001307 39,000 90 476 0
2021-12-02 17:09:54 GMT 49.961445 20.987747 39,000 90 476 -64
2021-12-02 17:09:50 GMT 49.961491 20.972382 39,000 90 475 -64
2021-12-02 17:09:47 GMT 49.961491 20.952042 39,000 90 475 -64
2021-12-02 17:09:44 GMT 49.961491 20.952042 39,000 90 475 0
2021-12-02 17:09:40 GMT 49.961536 20.940090 39,000 90 475 -64
2021-12-02 17:09:37 GMT 49.961536 20.931404 39,000 90 475 64
2021-12-02 17:09:34 GMT 49.961563 20.908861 39,000 90 475 0
2021-12-02 17:09:31 GMT 49.961563 20.908861 39,000 90 475 64
2021-12-02 17:09:28 GMT 49.961536 20.900747 39,000 90 475 64
2021-12-02 17:09:25 GMT 49.961536 20.889463 39,000 90 475 0
2021-12-02 17:09:22 GMT 49.961582 20.879293 39,000 90 476 -64
2021-12-02 17:09:18 GMT 49.961632 20.861330 39,000 90 476 0
2021-12-02 17:09:15 GMT 49.961678 20.855539 39,000 90 476 0
2021-12-02 17:09:11 GMT 49.961678 20.841360 39,000 90 477 0
2021-12-02 17:09:08 GMT 49.961723 20.832232 39,000 89 478 0
2021-12-02 17:09:05 GMT 49.961700 20.821043 39,000 89 478 0
2021-12-02 17:09:02 GMT 49.961700 20.812443 39,000 89 478 0
2021-12-02 17:08:59 GMT 49.961678 20.799496 39,000 89 478 -64
2021-12-02 17:08:56 GMT 49.961632 20.787247 39,000 89 478 -128
2021-12-02 17:08:52 GMT 49.961609 20.776302 39,000 89 478 64
2021-12-02 17:08:49 GMT 49.961563 20.766111 39,025 89 478 64
2021-12-02 17:08:46 GMT 49.961517 20.755560 39,000 89 477 0
2021-12-02 17:08:43 GMT 49.961472 20.744717 39,000 89 477 -64
2021-12-02 17:08:40 GMT 49.961472 20.735826 39,000 89 477 0
2021-12-02 17:08:37 GMT 49.961399 20.724001 39,000 89 477 0
2021-12-02 17:08:34 GMT 49.961380 20.711830 39,000 89 477 0
2021-12-02 17:08:31 GMT 49.961349 20.704996 39,000 89 477 0
2021-12-02 17:08:28 GMT 49.961304 20.696312 39,000 89 477 -64
2021-12-02 17:08:25 GMT 49.961243 20.684004 39,000 89 477 64
2021-12-02 17:08:22 GMT 49.961212 20.675453 39,000 89 477 0
2021-12-02 17:08:19 GMT 49.961151 20.664488 39,000 89 477 64
2021-12-02 17:08:16 GMT 49.961121 20.654816 39,000 89 477 64
2021-12-02 17:08:13 GMT 49.961060 20.644466 39,000 89 477 0
2021-12-02 17:08:10 GMT 49.961014 20.634420 39,000 89 477 0
2021-12-02 17:08:07 GMT 49.960922 20.623507 39,000 89 477 -64
2021-12-02 17:08:03 GMT 49.960876 20.610712 39,000 89 477 -64
2021-12-02 17:08:00 GMT 49.960793 20.600849 39,000 89 476 -64
2021-12-02 17:07:57 GMT 49.960747 20.588230 39,000 89 476 0
2021-12-02 17:07:54 GMT 49.960651 20.579323 39,000 89 476 -64
2021-12-02 17:07:51 GMT 49.960606 20.565664 39,000 89 476 64
2021-12-02 17:07:48 GMT 49.960514 20.555346 39,000 89 476 64
2021-12-02 17:07:44 GMT 49.960419 20.543493 39,000 89 476 128
2021-12-02 17:07:41 GMT 49.960373 20.534859 39,000 89 476 64
2021-12-02 17:07:38 GMT 49.960281 20.522387 39,000 89 476 0
2021-12-02 17:07:35 GMT 49.960186 20.502270 39,000 89 476 -64
2021-12-02 17:07:32 GMT 49.960186 20.502270 39,000 89 476 0
2021-12-02 17:07:29 GMT 49.960144 20.491598 39,000 89 476 0
2021-12-02 17:07:26 GMT 49.960052 20.482563 39,000 89 476 -64
2021-12-02 17:07:23 GMT 49.960003 20.473692 39,000 89 476 -64
2021-12-02 17:07:20 GMT 49.959953 20.460773 39,000 89 476 -64
2021-12-02 17:07:16 GMT 49.959869 20.450617 39,000 89 476 64
2021-12-02 17:07:12 GMT 49.959778 20.433342 39,000 89 476 64
2021-12-02 17:07:08 GMT 49.959721 20.423584 39,000 89 476 0
2021-12-02 17:07:05 GMT 49.959686 20.410791 39,000 89 476 -64
2021-12-02 17:07:02 GMT 49.959629 20.398716 39,000 89 476 -64
2021-12-02 17:06:59 GMT 49.959549 20.386578 39,000 89 475 0
2021-12-02 17:06:56 GMT 49.959488 20.379713 39,000 89 476 -64
2021-12-02 17:06:53 GMT 49.959457 20.368797 39,000 89 476 -64
2021-12-02 17:06:50 GMT 49.959442 20.361750 39,000 89 476 -64
2021-12-02 17:06:47 GMT 49.959412 20.351015 39,000 89 476 -64
2021-12-02 17:06:44 GMT 49.959351 20.340891 39,000 89 476 -64
2021-12-02 17:06:41 GMT 49.959305 20.327230 39,000 89 476 0
2021-12-02 17:06:38 GMT 49.959229 20.318491 39,000 89 476 0
2021-12-02 17:06:35 GMT 49.959183 20.309168 39,000 89 476 -64
2021-12-02 17:06:32 GMT 49.959137 20.299770 39,000 89 476 -64
2021-12-02 17:06:29 GMT 49.959118 20.289520 39,000 89 476 0
2021-12-02 17:06:26 GMT 49.959023 20.275862 39,000 89 476 64
2021-12-02 17:06:23 GMT 49.959023 20.268885 39,000 89 476 64
2021-12-02 17:06:20 GMT 49.958954 20.258644 39,000 89 476 128
2021-12-02 17:06:17 GMT 49.958862 20.246935 39,000 89 476 128
2021-12-02 17:06:14 GMT 49.958790 20.236816 39,000 89 475 0
2021-12-02 17:06:10 GMT 49.958698 20.224791 39,000 89 475 0
2021-12-02 17:06:07 GMT 49.958633 20.214411 39,000 89 475 0
2021-12-02 17:06:04 GMT 49.958557 20.202076 39,000 89 475 0
2021-12-02 17:06:00 GMT 49.958496 20.192221 39,000 89 474 64
2021-12-02 17:05:57 GMT 49.958405 20.181885 39,000 89 474 64
2021-12-02 17:05:54 GMT 49.958370 20.170008 39,000 89 474 0
2021-12-02 17:05:51 GMT 49.958279 20.158131 39,000 89 474 0
2021-12-02 17:05:48 GMT 49.958221 20.151239 39,000 89 474 0
2021-12-02 17:05:45 GMT 49.958138 20.137049 39,000 89 474 64
2021-12-02 17:05:42 GMT 49.958092 20.129997 39,000 89 474 128
2021-12-02 17:05:39 GMT 49.957993 20.119581 39,000 89 474 64
2021-12-02 17:05:36 GMT 49.957954 20.107876 39,000 89 474 0
2021-12-02 17:05:32 GMT 49.957859 20.095034 39,000 89 474 -192
2021-12-02 17:05:29 GMT 49.957764 20.084959 39,000 89 474 -192
2021-12-02 17:05:25 GMT 49.957626 20.071011 39,000 89 474 -64
2021-12-02 17:05:22 GMT 49.957535 20.058289 39,000 89 474 0
2021-12-02 17:05:19 GMT 49.957348 20.039434 39,000 89 474 0
2021-12-02 17:05:16 GMT 49.957348 20.039434 39,000 89 474 0
2021-12-02 17:05:13 GMT 49.957115 20.020132 39,000 89 474 0
2021-12-02 17:05:10 GMT 49.957031 20.009645 39,000 89 474 -64
2021-12-02 17:05:07 GMT 49.957031 20.009645 39,000 89 473 0
2021-12-02 17:05:04 GMT 49.956894 19.999960 39,000 89 473 0
2021-12-02 17:05:01 GMT 49.956757 19.986732 39,000 88 473 128
2021-12-02 17:04:58 GMT 49.956711 19.979650 39,000 89 473 64
2021-12-02 17:04:54 GMT 49.956528 19.964832 39,000 88 473 128
2021-12-02 17:04:51 GMT 49.956390 19.955292 39,000 88 473 128
2021-12-02 17:04:48 GMT 49.956345 19.948208 39,000 88 473 0
2021-12-02 17:04:45 GMT 49.956161 19.932163 39,000 88 473 -64
2021-12-02 17:04:42 GMT 49.956024 19.923994 39,000 88 473 -64
2021-12-02 17:04:39 GMT 49.955933 19.913298 39,000 89 473 -64
2021-12-02 17:04:36 GMT 49.955811 19.904406 39,000 89 473 -64
2021-12-02 17:04:32 GMT 49.955719 19.893938 39,000 89 473 64
2021-12-02 17:04:29 GMT 49.955578 19.882656 39,000 89 473 0
2021-12-02 17:04:26 GMT 49.955441 19.869516 39,000 89 473 -64
2021-12-02 17:04:23 GMT 49.955292 19.858946 39,000 89 473 0
2021-12-02 17:04:20 GMT 49.955200 19.849115 39,000 89 473 0
2021-12-02 17:04:15 GMT 49.955017 19.830755 39,000 89 473 -64
2021-12-02 17:04:12 GMT 49.954926 19.824236 39,000 89 473 64
2021-12-02 17:04:09 GMT 49.954834 19.813915 39,000 89 473 64
2021-12-02 17:04:06 GMT 49.954742 19.804808 39,000 89 473 0
2021-12-02 17:04:03 GMT 49.954559 19.784281 39,000 89 473 -64
2021-12-02 17:04:00 GMT 49.954559 19.784281 39,000 89 473 -64
2021-12-02 17:03:57 GMT 49.954369 19.768414 39,000 89 473 -64
2021-12-02 17:03:54 GMT 49.954330 19.763248 39,000 89 473 0
2021-12-02 17:03:51 GMT 49.954239 19.752335 39,000 89 473 64
2021-12-02 17:03:48 GMT 49.954147 19.745323 39,000 89 473 64
2021-12-02 17:03:45 GMT 49.954010 19.732456 39,000 89 473 0
2021-12-02 17:03:42 GMT 49.953918 19.722120 39,000 89 473 64
2021-12-02 17:03:39 GMT 49.953781 19.712002 39,000 88 472 0
2021-12-02 17:03:34 GMT 49.953506 19.685116 39,000 88 472 0
2021-12-02 17:03:31 GMT 49.953506 19.685116 39,000 88 472 0
2021-12-02 17:03:28 GMT 49.953186 19.659817 39,000 88 472 0
2021-12-02 17:03:25 GMT 49.953186 19.659817 39,000 88 472 128
2021-12-02 17:03:22 GMT 49.953114 19.652388 39,000 88 472 64
2021-12-02 17:03:19 GMT 49.952972 19.643036 39,000 89 473 64
2021-12-02 17:03:16 GMT 49.952820 19.631195 39,000 89 473 0
2021-12-02 17:03:13 GMT 49.952740 19.622398 39,000 89 473 0
2021-12-02 17:03:10 GMT 49.952644 19.614754 39,000 89 473 0
2021-12-02 17:03:07 GMT 49.952499 19.600332 39,000 89 474 -64
2021-12-02 17:03:04 GMT 49.952408 19.593611 39,000 89 474 -64
2021-12-02 17:03:01 GMT 49.952320 19.584763 39,000 89 474 -64
2021-12-02 17:02:58 GMT 49.952229 19.573776 39,000 89 474 -64
2021-12-02 17:02:54 GMT 49.952042 19.556459 39,000 88 474 0
2021-12-02 17:02:50 GMT 49.951900 19.546534 39,000 88 474 0
2021-12-02 17:02:47 GMT 49.951813 19.537956 39,000 88 474 0
2021-12-02 17:02:44 GMT 49.951668 19.526417 39,000 88 474 64
2021-12-02 17:02:41 GMT 49.951538 19.514175 39,000 88 474 64
2021-12-02 17:02:38 GMT 49.951389 19.504519 39,000 88 474 64
2021-12-02 17:02:35 GMT 49.951248 19.493235 39,000 88 474 64
2021-12-02 17:02:32 GMT 49.951111 19.484550 39,000 88 474 64
2021-12-02 17:02:29 GMT 49.950989 19.475435 39,000 88 474 -64
2021-12-02 17:02:25 GMT 49.950806 19.460184 39,000 88 474 -64
2021-12-02 17:02:21 GMT 49.950550 19.444019 39,000 88 477 0
2021-12-02 17:02:18 GMT 49.950459 19.437338 39,000 88 474 64
2021-12-02 17:02:15 GMT 49.950348 19.430044 39,000 88 474 64
2021-12-02 17:02:12 GMT 49.950119 19.414288 39,000 88 474 64
2021-12-02 17:02:08 GMT 49.949982 19.405615 39,000 88 474 0
2021-12-02 17:02:05 GMT 49.949844 19.393976 39,000 88 474 0
2021-12-02 17:02:01 GMT 49.949615 19.379015 39,000 88 475 0
2021-12-02 17:01:58 GMT 49.949478 19.368673 39,000 88 475 0
2021-12-02 17:01:55 GMT 49.949387 19.360657 39,000 88 475 0
2021-12-02 17:01:52 GMT 49.949249 19.350176 39,000 88 475 -64
2021-12-02 17:01:49 GMT 49.949108 19.339798 39,000 88 475 -128
2021-12-02 17:01:46 GMT 49.949020 19.331240 39,025 88 476 -64
2021-12-02 17:01:43 GMT 49.948734 19.308174 39,000 88 476 -128
2021-12-02 17:01:40 GMT 49.948734 19.308174 39,025 88 476 -64
2021-12-02 17:01:37 GMT 49.948608 19.298641 39,025 88 476 0
2021-12-02 17:01:34 GMT 49.948456 19.288206 39,000 88 476 64
2021-12-02 17:01:30 GMT 49.948223 19.273359 39,000 88 477 0
2021-12-02 17:01:27 GMT 49.948086 19.264898 39,000 88 477 0
2021-12-02 17:01:24 GMT 49.947922 19.254263 39,000 88 477 0
2021-12-02 17:01:20 GMT 49.947693 19.238506 39,000 88 478 64
2021-12-02 17:01:17 GMT 49.947556 19.227880 39,000 88 478 64
2021-12-02 17:01:14 GMT 49.947433 19.218800 39,000 88 478 64
2021-12-02 17:01:11 GMT 49.947292 19.210634 39,000 88 479 64
2021-12-02 17:01:08 GMT 49.947151 19.199797 39,000 88 479 64
2021-12-02 17:01:05 GMT 49.947014 19.191778 39,000 88 479 0
2021-12-02 17:01:02 GMT 49.946823 19.177214 39,000 88 480 -64
2021-12-02 17:00:59 GMT 49.946686 19.170029 39,000 88 480 -128
2021-12-02 17:00:56 GMT 49.946503 19.155703 39,000 88 480 0
2021-12-02 17:00:51 GMT 49.946220 19.140039 39,000 88 480 0
2021-12-02 17:00:48 GMT 49.946083 19.131874 39,000 88 480 64
2021-12-02 17:00:45 GMT 49.945896 19.120888 39,000 88 480 64
2021-12-02 17:00:42 GMT 49.945724 19.111586 39,000 88 480 64
2021-12-02 17:00:39 GMT 49.945477 19.099436 39,000 88 481 -64
2021-12-02 17:00:36 GMT 49.945290 19.089266 39,000 88 481 -64
2021-12-02 17:00:33 GMT 49.945129 19.081083 39,000 88 481 0
2021-12-02 17:00:29 GMT 49.944809 19.065109 39,000 88 481 0
2021-12-02 17:00:26 GMT 49.944546 19.051702 39,000 88 481 0
2021-12-02 17:00:23 GMT 49.944454 19.045914 39,000 88 481 -64
2021-12-02 17:00:19 GMT 49.944126 19.030176 39,025 88 480 0
2021-12-02 17:00:16 GMT 49.943939 19.021639 39,000 88 481 0
2021-12-02 17:00:12 GMT 49.943756 19.010208 39,000 88 481 0
2021-12-02 17:00:09 GMT 49.943436 18.995434 39,000 88 481 0
2021-12-02 17:00:06 GMT 49.942978 18.974327 39,000 88 481 -64
2021-12-02 17:00:03 GMT 49.942978 18.974327 39,000 88 481 -64
2021-12-02 17:00:00 GMT 49.942730 18.961884 39,000 87 481 64
2021-12-02 16:59:57 GMT 49.942612 18.956619 39,025 88 481 0
2021-12-02 16:59:54 GMT 49.942406 18.946518 39,000 88 482 -64
2021-12-02 16:59:51 GMT 49.942173 18.936644 39,000 87 481 64
2021-12-02 16:59:48 GMT 49.941650 18.913977 39,000 87 481 64
2021-12-02 16:59:45 GMT 49.941650 18.913977 39,000 87 482 64
2021-12-02 16:59:42 GMT 49.941467 18.905230 39,000 88 482 -64
2021-12-02 16:59:39 GMT 49.941238 18.894821 39,000 88 482 -64
2021-12-02 16:59:36 GMT 49.940914 18.881119 39,000 88 482 -64
2021-12-02 16:59:33 GMT 49.940777 18.875477 39,000 88 482 -64
2021-12-02 16:59:30 GMT 49.940506 18.861717 39,000 88 483 64
2021-12-02 16:59:27 GMT 49.940323 18.853479 39,000 88 482 64
2021-12-02 16:59:24 GMT 49.940029 18.839771 39,000 88 482 64
2021-12-02 16:59:21 GMT 49.939892 18.833685 39,000 88 482 64
2021-12-02 16:59:18 GMT 49.939590 18.818567 39,000 88 482 64
2021-12-02 16:59:15 GMT 49.939426 18.811787 39,000 89 483 -64
2021-12-02 16:59:12 GMT 49.939178 18.799053 39,000 88 483 128
2021-12-02 16:59:09 GMT 49.938961 18.788551 38,975 88 483 64
2021-12-02 16:59:06 GMT 49.938774 18.779718 38,975 88 483 64
2021-12-02 16:59:03 GMT 49.938583 18.767467 39,000 88 483 -64
2021-12-02 16:58:59 GMT 49.938213 18.745422 39,000 88 483 -128
2021-12-02 16:58:56 GMT 49.938213 18.745422 39,025 89 483 64
2021-12-02 16:58:53 GMT 49.938034 18.724388 39,000 89 483 64
2021-12-02 16:58:50 GMT 49.938034 18.724388 39,000 89 483 64
2021-12-02 16:58:47 GMT 49.937981 18.714022 39,000 89 483 64
2021-12-02 16:58:44 GMT 49.937897 18.701260 39,000 89 483 -64
2021-12-02 16:58:41 GMT 49.937851 18.694756 39,000 89 483 0
2021-12-02 16:58:38 GMT 49.937702 18.672230 39,000 89 483 -64
2021-12-02 16:58:35 GMT 49.937702 18.672230 39,000 89 483 -64
2021-12-02 16:58:32 GMT 49.937622 18.660351 39,000 89 483 0
2021-12-02 16:58:28 GMT 49.937565 18.650034 39,000 89 483 -64
2021-12-02 16:58:25 GMT 49.937485 18.637583 39,000 89 483 0
2021-12-02 16:58:22 GMT 49.937378 18.627766 39,000 89 482 0
2021-12-02 16:58:18 GMT 49.937256 18.615250 39,000 89 482 -64
2021-12-02 16:58:15 GMT 49.937145 18.604307 39,000 88 482 0
2021-12-02 16:58:12 GMT 49.936913 18.580553 39,000 88 482 64
2021-12-02 16:58:09 GMT 49.936913 18.580553 39,000 88 482 64
2021-12-02 16:58:05 GMT 49.936752 18.569786 39,000 88 482 0
2021-12-02 16:58:02 GMT 49.936615 18.555618 39,000 89 481 0
2021-12-02 16:57:59 GMT 49.936539 18.548929 39,000 89 481 0
2021-12-02 16:57:56 GMT 49.936386 18.538418 39,000 89 481 0
2021-12-02 16:57:53 GMT 49.936260 18.526215 39,000 89 481 0
2021-12-02 16:57:49 GMT 49.936111 18.511745 39,000 88 481 0
2021-12-02 16:57:46 GMT 49.936020 18.503796 39,000 88 481 64
2021-12-02 16:57:43 GMT 49.935886 18.493479 39,000 88 481 64
2021-12-02 16:57:39 GMT 49.935749 18.480562 39,000 88 481 64
2021-12-02 16:57:36 GMT 49.935608 18.468760 39,000 89 481 0
2021-12-02 16:57:33 GMT 49.935471 18.458260 39,000 89 481 0
2021-12-02 16:57:30 GMT 49.935379 18.449442 39,000 89 481 -64
2021-12-02 16:57:27 GMT 49.935284 18.439363 39,000 89 481 -64
2021-12-02 16:57:24 GMT 49.935143 18.428749 39,000 89 481 -64
2021-12-02 16:57:21 GMT 49.935059 18.416048 39,000 89 481 64
2021-12-02 16:57:17 GMT 49.934956 18.405663 39,000 89 481 128
2021-12-02 16:57:14 GMT 49.934864 18.392376 39,000 89 481 128
2021-12-02 16:57:11 GMT 49.934677 18.374634 38,975 89 481 64
2021-12-02 16:57:08 GMT 49.934677 18.374634 38,975 89 482 -64
2021-12-02 16:57:05 GMT 49.934418 18.349625 39,000 89 482 -256
2021-12-02 16:57:02 GMT 49.934418 18.349625 39,000 89 482 -192
2021-12-02 16:56:59 GMT 49.934353 18.342937 39,000 89 482 -256
2021-12-02 16:56:56 GMT 49.934258 18.334177 39,025 89 481 0
2021-12-02 16:56:53 GMT 49.934116 18.319851 39,000 90 480 128
2021-12-02 16:56:50 GMT 49.933979 18.307825 39,000 89 481 128
2021-12-02 16:56:46 GMT 49.933979 18.298397 39,000 91 480 128
2021-12-02 16:56:43 GMT 49.934052 18.286888 39,000 92 479 0
2021-12-02 16:56:40 GMT 49.934303 18.274199 39,000 93 479 -64
2021-12-02 16:56:37 GMT 49.934490 18.268557 39,000 94 479 -64
2021-12-02 16:56:34 GMT 49.935467 18.247103 39,000 94 479 -64
2021-12-02 16:56:31 GMT 49.935467 18.247103 39,000 94 479 -64
2021-12-02 16:56:28 GMT 49.936615 18.224367 39,000 94 478 -64
2021-12-02 16:56:25 GMT 49.936615 18.224367 39,000 94 478 0
2021-12-02 16:56:21 GMT 49.937210 18.212008 39,000 94 478 0
2021-12-02 16:56:18 GMT 49.937798 18.200113 39,000 94 478 0
2021-12-02 16:56:15 GMT 49.938354 18.188154 39,000 94 478 0
2021-12-02 16:56:12 GMT 49.938675 18.181145 39,000 94 478 -64
2021-12-02 16:56:09 GMT 49.939407 18.165461 39,000 94 478 0
2021-12-02 16:56:06 GMT 49.939751 18.158396 39,000 94 478 64
2021-12-02 16:56:03 GMT 49.940048 18.151798 39,000 94 478 64
2021-12-02 16:56:00 GMT 49.940590 18.139912 39,000 94 478 128
2021-12-02 16:55:57 GMT 49.941055 18.130114 39,000 94 479 64
2021-12-02 16:55:54 GMT 49.941467 18.121080 39,000 94 479 64
2021-12-02 16:55:51 GMT 49.942078 18.107843 39,000 94 479 0
2021-12-02 16:55:48 GMT 49.942356 18.101385 39,000 94 479 -64
2021-12-02 16:55:45 GMT 49.942886 18.089930 39,000 94 479 -64
2021-12-02 16:55:42 GMT 49.943523 18.076815 39,000 94 479 -64
2021-12-02 16:55:39 GMT 49.944672 18.051188 39,000 94 479 0
2021-12-02 16:55:35 GMT 49.944672 18.051188 39,000 93 479 64
2021-12-02 16:55:31 GMT 49.945244 18.039030 39,000 93 479 64
2021-12-02 16:55:28 GMT 49.945477 18.033241 39,000 93 480 0
2021-12-02 16:55:25 GMT 49.946091 18.020037 39,000 94 479 -64
2021-12-02 16:55:22 GMT 49.947060 17.997980 39,000 94 479 -64
2021-12-02 16:55:19 GMT 49.947060 17.997980 39,000 94 480 -64
2021-12-02 16:55:15 GMT 49.947556 17.987366 39,000 93 480 -64
2021-12-02 16:55:12 GMT 49.948547 17.965691 39,000 93 480 0
2021-12-02 16:55:09 GMT 49.948547 17.965691 39,000 94 480 0
2021-12-02 16:55:06 GMT 49.949432 17.945499 39,000 94 480 0
2021-12-02 16:55:03 GMT 49.949432 17.945499 39,000 94 480 0
2021-12-02 16:55:00 GMT 49.949993 17.933697 39,000 94 480 -64
2021-12-02 16:54:56 GMT 49.950504 17.921745 39,000 94 480 -64
2021-12-02 16:54:53 GMT 49.951015 17.910980 39,000 93 480 64
2021-12-02 16:54:50 GMT 49.951584 17.898680 39,000 94 480 64
2021-12-02 16:54:47 GMT 49.951946 17.890196 39,000 93 480 64
2021-12-02 16:54:44 GMT 49.952366 17.881289 39,000 93 480 64
2021-12-02 16:54:41 GMT 49.952957 17.867674 39,000 93 480 64
2021-12-02 16:54:38 GMT 49.953278 17.860806 39,000 93 480 64
2021-12-02 16:54:35 GMT 49.953857 17.848181 39,000 93 480 64
2021-12-02 16:54:31 GMT 49.954369 17.836304 39,000 94 480 0
2021-12-02 16:54:28 GMT 49.955067 17.821457 39,000 94 480 0
2021-12-02 16:54:25 GMT 49.955429 17.813318 39,000 94 480 -64
2021-12-02 16:54:22 GMT 49.956345 17.792503 39,000 94 480 -64
2021-12-02 16:54:18 GMT 49.956345 17.792503 39,000 93 480 0
2021-12-02 16:54:15 GMT 49.957302 17.771128 39,000 93 480 64
2021-12-02 16:54:12 GMT 49.957302 17.771128 39,000 93 480 0
2021-12-02 16:54:09 GMT 49.957672 17.762220 39,000 93 480 0
2021-12-02 16:54:06 GMT 49.958221 17.749859 39,000 93 480 -64
2021-12-02 16:54:03 GMT 49.958588 17.741402 39,000 93 480 -64
2021-12-02 16:54:00 GMT 49.959255 17.725773 39,000 93 480 0
2021-12-02 16:53:57 GMT 49.960049 17.706696 39,000 93 480 -64
2021-12-02 16:53:54 GMT 49.960049 17.706696 39,000 93 480 -64
2021-12-02 16:53:50 GMT 49.960510 17.695938 39,000 93 480 -64
2021-12-02 16:53:47 GMT 49.960922 17.685314 39,000 93 477 64
2021-12-02 16:53:43 GMT 49.961491 17.671732 39,000 93 478 0
2021-12-02 16:53:40 GMT 49.961910 17.662155 39,000 93 478 -128
2021-12-02 16:53:37 GMT 49.962982 17.634838 39,000 93 478 -64
2021-12-02 16:53:34 GMT 49.962982 17.634838 39,000 93 478 -64
2021-12-02 16:53:31 GMT 49.963215 17.630013 39,000 93 478 -128
2021-12-02 16:53:28 GMT 49.963863 17.613831 39,000 93 479 0
2021-12-02 16:53:25 GMT 49.964127 17.606964 39,000 93 478 -128
2021-12-02 16:53:22 GMT 49.964493 17.597857 39,000 93 479 -64
2021-12-02 16:53:18 GMT 49.965031 17.584953 39,025 93 478 -128
2021-12-02 16:53:15 GMT 49.965546 17.572777 39,025 93 478 -64
2021-12-02 16:53:12 GMT 49.966518 17.548359 39,025 93 478 0
2021-12-02 16:53:08 GMT 49.966518 17.548359 39,000 93 478 64
2021-12-02 16:53:04 GMT 49.967194 17.530783 39,000 93 478 128
2021-12-02 16:53:01 GMT 49.967743 17.516617 39,000 93 478 128
2021-12-02 16:52:58 GMT 49.967743 17.516617 39,000 93 479 64
2021-12-02 16:52:55 GMT 49.968246 17.504618 39,000 93 479 0
2021-12-02 16:52:51 GMT 49.968613 17.495504 39,000 93 478 0
2021-12-02 16:52:48 GMT 49.969299 17.479753 39,000 93 478 -64
2021-12-02 16:52:45 GMT 49.969543 17.473385 39,000 93 478 -64
2021-12-02 16:52:42 GMT 49.970123 17.460312 39,000 93 478 64
2021-12-02 16:52:38 GMT 49.970757 17.444803 39,000 93 478 128
2021-12-02 16:52:35 GMT 49.971687 17.422237 39,000 93 477 -64
2021-12-02 16:52:31 GMT 49.971687 17.422237 39,000 93 477 0
2021-12-02 16:52:28 GMT 49.972012 17.415260 39,000 93 476 -64
2021-12-02 16:52:25 GMT 49.972458 17.404078 39,000 93 476 -64
2021-12-02 16:52:22 GMT 49.972851 17.394104 39,000 93 475 64
2021-12-02 16:52:19 GMT 49.973419 17.380516 39,000 93 477 64
2021-12-02 16:52:16 GMT 49.973736 17.372206 39,000 93 476 64
2021-12-02 16:52:13 GMT 49.974152 17.362185 39,000 93 476 64
2021-12-02 16:52:10 GMT 49.974472 17.353773 39,000 93 475 0
2021-12-02 16:52:07 GMT 49.974792 17.345171 39,000 93 476 0
2021-12-02 16:52:04 GMT 49.975204 17.334980 39,000 93 477 0
2021-12-02 16:52:01 GMT 49.975780 17.320465 39,000 93 476 0
2021-12-02 16:51:58 GMT 49.976624 17.299129 39,000 93 476 0
2021-12-02 16:51:55 GMT 49.976624 17.299129 39,000 93 477 0
2021-12-02 16:51:51 GMT 49.977127 17.287350 39,000 93 477 0
2021-12-02 16:51:48 GMT 49.977551 17.277040 39,000 93 477 0
2021-12-02 16:51:45 GMT 49.977951 17.266678 39,000 93 477 -192
2021-12-02 16:51:42 GMT 49.978436 17.254993 39,000 93 477 -192
2021-12-02 16:51:38 GMT 49.979275 17.232651 39,000 93 477 -128
2021-12-02 16:51:35 GMT 49.979275 17.232651 39,000 93 477 64
2021-12-02 16:51:32 GMT 49.979736 17.221720 39,000 93 477 64
2021-12-02 16:51:29 GMT 49.980110 17.211048 39,000 93 477 64
2021-12-02 16:51:26 GMT 49.980392 17.204292 39,000 93 477 0
2021-12-02 16:51:23 GMT 49.980949 17.189447 39,000 93 477 -64
2021-12-02 16:51:20 GMT 49.981155 17.184496 39,000 93 477 0
2021-12-02 16:51:16 GMT 49.981705 17.170330 39,000 93 477 0
2021-12-02 16:51:13 GMT 49.982162 17.158548 39,000 93 477 0
2021-12-02 16:51:10 GMT 49.982578 17.148100 39,000 93 477 0
2021-12-02 16:51:06 GMT 49.983032 17.135420 39,000 93 477 64
2021-12-02 16:51:03 GMT 49.983398 17.125734 39,000 93 477 64
2021-12-02 16:51:00 GMT 49.984268 17.102243 39,000 93 477 0
2021-12-02 16:50:57 GMT 49.984268 17.102243 39,000 93 477 -64
2021-12-02 16:50:54 GMT 49.984627 17.093466 39,000 93 477 -64
2021-12-02 16:50:51 GMT 49.985092 17.081217 39,000 93 477 -64
2021-12-02 16:50:47 GMT 49.985512 17.069412 39,000 93 476 -64
2021-12-02 16:50:44 GMT 49.985962 17.058298 39,000 93 476 64
2021-12-02 16:50:40 GMT 49.986397 17.045956 39,000 93 477 64
2021-12-02 16:50:37 GMT 49.986816 17.034821 39,000 93 477 0
2021-12-02 16:50:34 GMT 49.987186 17.024874 39,000 93 477 64
2021-12-02 16:50:31 GMT 49.987564 17.014353 39,000 93 478 0
2021-12-02 16:50:28 GMT 49.987976 17.003799 39,000 93 477 64
2021-12-02 16:50:24 GMT 49.988434 16.991224 39,000 93 477 64
2021-12-02 16:50:21 GMT 49.988865 16.978777 39,000 93 477 0
2021-12-02 16:50:18 GMT 49.989285 16.968533 39,000 93 477 64
2021-12-02 16:50:15 GMT 49.989532 16.960649 39,000 93 477 -64
2021-12-02 16:50:12 GMT 49.989853 16.952192 39,000 93 478 0
2021-12-02 16:50:09 GMT 49.990265 16.941786 39,000 93 477 64
2021-12-02 16:50:06 GMT 49.990677 16.930292 39,000 93 477 64
2021-12-02 16:50:02 GMT 49.991566 16.904694 39,000 93 477 -64
2021-12-02 16:49:59 GMT 49.991566 16.904694 39,000 93 477 -64
2021-12-02 16:49:55 GMT 49.992050 16.891262 39,000 93 477 0
2021-12-02 16:49:52 GMT 49.992355 16.883017 39,000 93 477 64
2021-12-02 16:49:49 GMT 49.992828 16.871025 39,000 93 477 -64
2021-12-02 16:49:46 GMT 49.993286 16.858231 39,000 92 478 64
2021-12-02 16:49:43 GMT 49.993561 16.850859 39,000 93 478 -192
2021-12-02 16:49:40 GMT 49.993973 16.839079 39,000 93 478 0
2021-12-02 16:49:37 GMT 49.994339 16.828886 39,000 93 478 64
2021-12-02 16:49:34 GMT 49.994728 16.817989 39,000 93 478 64
2021-12-02 16:49:31 GMT 49.995102 16.807596 39,000 92 478 64
2021-12-02 16:49:28 GMT 49.995335 16.800323 39,000 92 479 64
2021-12-02 16:49:25 GMT 49.995712 16.789639 39,000 92 478 0
2021-12-02 16:49:22 GMT 49.996033 16.779316 39,000 92 479 0
2021-12-02 16:49:19 GMT 49.996361 16.769516 39,000 92 478 -64
2021-12-02 16:49:16 GMT 49.997059 16.748657 39,000 92 479 0
2021-12-02 16:49:13 GMT 49.997059 16.748657 39,000 92 479 0
2021-12-02 16:49:10 GMT 49.997570 16.733662 39,000 92 479 -64
2021-12-02 16:49:06 GMT 49.997910 16.723143 39,000 92 479 -64
2021-12-02 16:49:03 GMT 49.998501 16.704489 39,000 92 478 -64
2021-12-02 16:49:00 GMT 49.998501 16.704489 39,000 92 480 -64
2021-12-02 16:48:57 GMT 49.998966 16.690014 39,000 93 478 64
2021-12-02 16:48:54 GMT 49.999336 16.679176 39,000 93 477 64
2021-12-02 16:48:51 GMT 49.999603 16.670885 39,000 92 478 0
2021-12-02 16:48:48 GMT 50.000198 16.652454 39,000 92 478 -64
2021-12-02 16:48:45 GMT 50.000198 16.652454 39,000 92 478 -64
2021-12-02 16:48:42 GMT 50.000504 16.643024 39,000 92 478 -64
2021-12-02 16:48:38 GMT 50.001022 16.627735 39,000 92 478 64
2021-12-02 16:48:34 GMT 50.001526 16.612701 39,000 93 478 64
2021-12-02 16:48:31 GMT 50.002121 16.596149 39,000 93 478 64
2021-12-02 16:48:28 GMT 50.002121 16.596149 39,000 93 478 64
2021-12-02 16:48:25 GMT 50.002625 16.582561 39,000 93 478 0
2021-12-02 16:48:22 GMT 50.002968 16.571688 39,000 93 478 64
2021-12-02 16:48:19 GMT 50.003201 16.565083 39,000 93 478 64
2021-12-02 16:48:16 GMT 50.004086 16.540066 39,000 92 478 0
2021-12-02 16:48:13 GMT 50.004086 16.540066 39,000 92 478 -64
2021-12-02 16:48:09 GMT 50.004364 16.531172 39,000 92 479 0
2021-12-02 16:48:06 GMT 50.004738 16.519281 39,000 92 479 0
2021-12-02 16:48:03 GMT 50.005051 16.508982 39,000 92 479 -64
2021-12-02 16:48:00 GMT 50.005508 16.494743 39,000 92 479 -64
2021-12-02 16:47:57 GMT 50.005669 16.489588 39,000 92 479 0
2021-12-02 16:47:54 GMT 50.006058 16.477179 39,000 92 479 0
2021-12-02 16:47:51 GMT 50.006413 16.465164 39,000 92 479 -64
2021-12-02 16:47:48 GMT 50.006695 16.456406 39,000 92 479 -64
2021-12-02 16:47:45 GMT 50.006973 16.446236 39,000 92 479 -64
2021-12-02 16:47:42 GMT 50.007343 16.434212 39,000 92 482 64
2021-12-02 16:47:39 GMT 50.007889 16.416899 39,000 92 479 64
2021-12-02 16:47:36 GMT 50.007889 16.416899 39,000 92 479 128
2021-12-02 16:47:32 GMT 50.008301 16.403383 39,000 92 480 64
2021-12-02 16:47:29 GMT 50.009079 16.379169 39,000 92 480 -64
2021-12-02 16:47:25 GMT 50.009079 16.379169 39,000 92 480 -64
2021-12-02 16:47:22 GMT 50.009445 16.367315 39,000 92 480 -64
2021-12-02 16:47:19 GMT 50.009766 16.357529 39,000 92 480 -64
2021-12-02 16:47:16 GMT 50.010040 16.348524 39,000 92 480 64
2021-12-02 16:47:13 GMT 50.010418 16.337114 39,000 92 480 0
2021-12-02 16:47:10 GMT 50.010818 16.323950 39,000 92 480 0
2021-12-02 16:47:07 GMT 50.011047 16.317081 39,000 92 481 -64
2021-12-02 16:47:04 GMT 50.011459 16.303133 39,000 92 481 -64
2021-12-02 16:47:01 GMT 50.011814 16.292131 39,000 92 481 0
2021-12-02 16:46:58 GMT 50.012047 16.285599 39,000 92 481 64
2021-12-02 16:46:55 GMT 50.012329 16.276968 39,000 92 481 64
2021-12-02 16:46:52 GMT 50.012695 16.264175 39,000 92 481 64
2021-12-02 16:46:49 GMT 50.012932 16.257168 39,000 92 483 128
2021-12-02 16:46:46 GMT 50.013630 16.233637 39,000 92 482 -64
2021-12-02 16:46:43 GMT 50.013630 16.233637 39,000 92 482 -64
2021-12-02 16:46:40 GMT 50.013977 16.222324 39,000 92 482 -64
2021-12-02 16:46:36 GMT 50.014389 16.210182 39,000 92 482 -64
2021-12-02 16:46:32 GMT 50.014801 16.196304 39,000 92 483 0
2021-12-02 16:46:29 GMT 50.015213 16.182564 39,000 92 482 64
2021-12-02 16:46:26 GMT 50.015446 16.173285 39,000 92 482 64
2021-12-02 16:46:23 GMT 50.015717 16.163998 39,000 92 482 64
2021-12-02 16:46:20 GMT 50.016281 16.144632 39,000 92 483 -64
2021-12-02 16:46:17 GMT 50.016281 16.144632 39,000 92 483 0
2021-12-02 16:46:14 GMT 50.016563 16.134165 39,000 92 483 0
2021-12-02 16:46:11 GMT 50.017216 16.111227 39,000 92 483 0
2021-12-02 16:46:08 GMT 50.017216 16.111227 39,000 92 483 0
2021-12-02 16:46:05 GMT 50.017731 16.090345 39,000 92 483 0
2021-12-02 16:46:01 GMT 50.017731 16.090345 39,000 92 483 128
2021-12-02 16:45:58 GMT 50.018051 16.078131 39,000 92 483 128
2021-12-02 16:45:55 GMT 50.018284 16.068026 39,000 92 483 128
2021-12-02 16:45:52 GMT 50.018555 16.057459 39,000 92 483 0
2021-12-02 16:45:49 GMT 50.018875 16.045895 39,000 92 483 -128
2021-12-02 16:45:46 GMT 50.019169 16.034546 39,000 92 483 -64
2021-12-02 16:45:43 GMT 50.019402 16.025639 39,000 92 483 0
2021-12-02 16:45:40 GMT 50.019634 16.016729 39,000 92 483 64
2021-12-02 16:45:37 GMT 50.019867 16.008566 39,000 92 483 64
2021-12-02 16:45:34 GMT 50.020294 15.993636 39,000 92 483 0
2021-12-02 16:45:31 GMT 50.020844 15.975977 39,000 92 481 64
2021-12-02 16:45:28 GMT 50.020844 15.975977 39,000 92 481 64
2021-12-02 16:45:25 GMT 50.021210 15.963207 39,000 92 483 0
2021-12-02 16:45:22 GMT 50.021530 15.952438 39,000 92 483 -64
2021-12-02 16:45:19 GMT 50.021774 15.943389 39,000 92 483 0
2021-12-02 16:45:16 GMT 50.022057 15.934333 39,000 92 483 0
2021-12-02 16:45:13 GMT 50.022381 15.923346 39,000 92 483 0
2021-12-02 16:45:10 GMT 50.022720 15.911745 39,000 92 483 0
2021-12-02 16:45:07 GMT 50.022995 15.902493 39,000 92 482 0
2021-12-02 16:45:04 GMT 50.023312 15.890165 39,000 92 482 0
2021-12-02 16:45:01 GMT 50.023636 15.878786 39,000 92 482 0
2021-12-02 16:44:58 GMT 50.023956 15.868595 39,000 92 482 64
2021-12-02 16:44:54 GMT 50.024338 15.854088 39,000 92 482 0
2021-12-02 16:44:50 GMT 50.024708 15.842211 39,000 92 482 0
2021-12-02 16:44:47 GMT 50.024963 15.833106 39,000 92 482 0
2021-12-02 16:44:44 GMT 50.025269 15.822836 39,000 92 482 64
2021-12-02 16:44:41 GMT 50.025593 15.812073 39,000 92 482 64
2021-12-02 16:44:38 GMT 50.025921 15.801606 39,000 92 482 0
2021-12-02 16:44:35 GMT 50.026199 15.790534 39,000 92 482 0
2021-12-02 16:44:32 GMT 50.026566 15.778608 39,000 92 482 0
2021-12-02 16:44:28 GMT 50.026886 15.765959 39,000 92 482 0
2021-12-02 16:44:24 GMT 50.027206 15.753527 39,000 92 482 0
2021-12-02 16:44:21 GMT 50.027527 15.741168 39,000 92 482 0
2021-12-02 16:44:17 GMT 50.027893 15.727146 39,000 92 482 64
2021-12-02 16:44:14 GMT 50.028122 15.717027 39,000 92 482 64
2021-12-02 16:44:11 GMT 50.028397 15.706691 39,000 92 482 0
2021-12-02 16:44:08 GMT 50.028713 15.695751 39,000 92 481 128
2021-12-02 16:44:04 GMT 50.029083 15.682093 39,000 92 482 -64
2021-12-02 16:44:01 GMT 50.029270 15.674892 39,000 92 482 -64
2021-12-02 16:43:58 GMT 50.029644 15.660343 39,000 92 482 -64
2021-12-02 16:43:55 GMT 50.029781 15.653662 39,000 92 481 64
2021-12-02 16:43:52 GMT 50.030045 15.643808 39,000 92 481 64
2021-12-02 16:43:49 GMT 50.030365 15.632172 39,000 92 482 64
2021-12-02 16:43:45 GMT 50.030914 15.608609 39,000 92 482 -64
2021-12-02 16:43:42 GMT 50.030914 15.608609 39,000 92 482 -64
2021-12-02 16:43:39 GMT 50.031132 15.599472 39,000 92 482 -128
2021-12-02 16:43:36 GMT 50.031410 15.588783 39,000 92 482 -128
2021-12-02 16:43:33 GMT 50.031693 15.576951 39,000 92 482 -64
2021-12-02 16:43:30 GMT 50.031925 15.567256 39,000 92 482 0
2021-12-02 16:43:27 GMT 50.032196 15.553966 39,000 92 482 0
2021-12-02 16:43:24 GMT 50.032425 15.544570 39,000 92 481 0
2021-12-02 16:43:21 GMT 50.032745 15.529825 39,000 92 481 64
2021-12-02 16:43:18 GMT 50.032856 15.525834 39,000 92 481 128
2021-12-02 16:43:15 GMT 50.033066 15.515442 39,000 92 481 128
2021-12-02 16:43:12 GMT 50.033295 15.505540 39,000 92 481 0
2021-12-02 16:43:09 GMT 50.033554 15.495399 39,000 92 481 0
2021-12-02 16:43:06 GMT 50.033878 15.481666 39,000 92 481 0
2021-12-02 16:43:03 GMT 50.034111 15.471571 39,000 92 481 -64
2021-12-02 16:43:00 GMT 50.034252 15.464073 39,000 92 481 -128
2021-12-02 16:42:57 GMT 50.034531 15.452493 39,000 92 481 64
2021-12-02 16:42:54 GMT 50.034718 15.445293 39,000 92 481 0
2021-12-02 16:42:51 GMT 50.035042 15.432822 39,000 91 480 0
2021-12-02 16:42:48 GMT 50.035324 15.422207 39,000 92 481 128
2021-12-02 16:42:45 GMT 50.035603 15.409884 39,000 92 480 0
2021-12-02 16:42:42 GMT 50.035767 15.401531 39,000 92 480 0
2021-12-02 16:42:39 GMT 50.036022 15.390510 39,000 91 480 -64
2021-12-02 16:42:36 GMT 50.036270 15.380209 39,000 91 480 -128
2021-12-02 16:42:33 GMT 50.036636 15.360621 39,000 91 480 0
2021-12-02 16:42:30 GMT 50.036636 15.360621 39,000 91 480 128
2021-12-02 16:42:27 GMT 50.036911 15.346816 39,000 91 480 64
2021-12-02 16:42:24 GMT 50.037277 15.328526 39,000 91 480 -64
2021-12-02 16:42:21 GMT 50.037277 15.328526 39,000 91 480 -128
2021-12-02 16:42:18 GMT 50.037460 15.319856 39,000 91 480 -64
2021-12-02 16:42:15 GMT 50.037743 15.306034 39,000 91 480 0
2021-12-02 16:42:12 GMT 50.037918 15.297089 39,000 91 480 64
2021-12-02 16:42:09 GMT 50.038101 15.288198 39,000 91 480 64
2021-12-02 16:42:06 GMT 50.038376 15.273598 39,000 91 480 64
2021-12-02 16:42:03 GMT 50.038486 15.267433 39,000 91 480 64
2021-12-02 16:42:00 GMT 50.038742 15.255384 39,000 91 480 64
2021-12-02 16:41:56 GMT 50.039017 15.242374 39,000 91 480 64
2021-12-02 16:41:53 GMT 50.039234 15.231059 39,000 91 480 -128
2021-12-02 16:41:50 GMT 50.039429 15.222642 39,000 91 480 -128
2021-12-02 16:41:47 GMT 50.039658 15.210354 39,000 91 480 -64
2021-12-02 16:41:44 GMT 50.040119 15.188970 39,025 91 480 0
2021-12-02 16:41:41 GMT 50.040119 15.188970 39,000 91 480 64
2021-12-02 16:41:37 GMT 50.040527 15.166265 39,000 91 480 0
2021-12-02 16:41:34 GMT 50.040527 15.166265 39,000 91 480 0
2021-12-02 16:41:31 GMT 50.040722 15.155194 39,000 91 480 0
2021-12-02 16:41:28 GMT 50.040939 15.144436 39,000 91 480 0
2021-12-02 16:41:24 GMT 50.041237 15.130772 39,000 91 480 -192
2021-12-02 16:41:21 GMT 50.041443 15.119573 39,025 91 480 0
2021-12-02 16:41:18 GMT 50.041534 15.113935 39,025 91 480 0
2021-12-02 16:41:15 GMT 50.041840 15.097813 39,000 91 480 192
2021-12-02 16:41:11 GMT 50.042072 15.085862 39,000 91 480 64
2021-12-02 16:41:08 GMT 50.042267 15.074688 39,000 91 480 -64
2021-12-02 16:41:05 GMT 50.042404 15.067821 39,000 91 480 0
2021-12-02 16:41:02 GMT 50.042679 15.054165 39,000 91 480 -128
2021-12-02 16:40:59 GMT 50.042912 15.042956 39,000 91 480 0
2021-12-02 16:40:56 GMT 50.043091 15.036091 39,000 91 480 0
2021-12-02 16:40:53 GMT 50.043503 15.016504 39,000 91 480 -64
2021-12-02 16:40:50 GMT 50.043503 15.016504 39,000 91 480 64
2021-12-02 16:40:47 GMT 50.043797 15.001534 39,000 91 480 64
2021-12-02 16:40:44 GMT 50.043934 14.994853 39,000 91 480 64
2021-12-02 16:40:41 GMT 50.044121 14.984609 39,000 91 480 64
2021-12-02 16:40:38 GMT 50.044353 14.973920 39,000 91 480 -64
2021-12-02 16:40:35 GMT 50.044510 14.963668 39,000 91 480 -64
2021-12-02 16:40:31 GMT 50.044773 14.950982 39,000 91 480 -64
2021-12-02 16:40:28 GMT 50.045013 14.938732 39,000 91 480 -64
2021-12-02 16:40:25 GMT 50.045197 14.929842 39,000 91 479 0
2021-12-02 16:40:21 GMT 50.045517 14.913651 39,000 91 479 64
2021-12-02 16:40:18 GMT 50.045700 14.904327 39,000 91 479 128
2021-12-02 16:40:15 GMT 50.046028 14.885658 39,000 91 479 128
2021-12-02 16:40:12 GMT 50.046265 14.873336 39,000 91 479 64
2021-12-02 16:40:09 GMT 50.046265 14.873336 39,000 91 479 -64
2021-12-02 16:40:06 GMT 50.046432 14.864936 39,000 91 479 -128
2021-12-02 16:40:03 GMT 50.046680 14.851808 39,000 91 479 -64
2021-12-02 16:40:00 GMT 50.046867 14.841787 39,000 91 479 64
2021-12-02 16:39:57 GMT 50.047054 14.831469 39,000 91 479 64
2021-12-02 16:39:54 GMT 50.047195 14.823971 39,000 91 479 64
2021-12-02 16:39:51 GMT 50.047394 14.813907 39,000 91 479 0
2021-12-02 16:39:48 GMT 50.047565 14.804597 39,000 91 479 0
2021-12-02 16:39:45 GMT 50.047852 14.790200 39,000 91 479 0
2021-12-02 16:39:42 GMT 50.048031 14.780843 39,000 91 479 0
2021-12-02 16:39:39 GMT 50.048264 14.769094 39,000 91 479 64
2021-12-02 16:39:36 GMT 50.048538 14.752687 39,000 91 479 64
2021-12-02 16:39:33 GMT 50.048538 14.752687 39,000 91 479 64
2021-12-02 16:39:30 GMT 50.048813 14.738737 39,000 91 479 64
2021-12-02 16:39:26 GMT 50.048996 14.726811 39,000 91 479 0
2021-12-02 16:39:23 GMT 50.049179 14.715681 39,000 91 479 0
2021-12-02 16:39:20 GMT 50.049381 14.703567 39,000 91 479 0
2021-12-02 16:39:17 GMT 50.049522 14.695773 39,000 91 479 0
2021-12-02 16:39:14 GMT 50.049728 14.684023 39,000 91 479 0
2021-12-02 16:39:11 GMT 50.049988 14.666080 39,000 91 479 0
2021-12-02 16:39:08 GMT 50.049988 14.666080 39,000 91 479 0
2021-12-02 16:39:05 GMT 50.050186 14.654461 39,000 91 479 -64
2021-12-02 16:39:02 GMT 50.050358 14.644627 39,000 91 479 0
2021-12-02 16:38:59 GMT 50.050735 14.622586 39,000 91 479 64
2021-12-02 16:38:56 GMT 50.050735 14.622586 39,000 91 479 0
2021-12-02 16:38:53 GMT 50.050873 14.613334 39,000 91 479 -64
2021-12-02 16:38:50 GMT 50.051056 14.602612 39,000 91 479 -128
2021-12-02 16:38:47 GMT 50.051285 14.591289 39,000 91 479 -64
2021-12-02 16:38:43 GMT 50.051651 14.567437 39,000 91 479 -64
2021-12-02 16:38:40 GMT 50.051651 14.567437 39,000 91 479 -64
2021-12-02 16:38:37 GMT 50.052017 14.545609 39,000 91 479 0
2021-12-02 16:38:34 GMT 50.052017 14.545609 39,000 91 479 64
2021-12-02 16:38:31 GMT 50.052109 14.538381 39,000 91 479 64
2021-12-02 16:38:28 GMT 50.052269 14.528602 39,000 91 479 64
2021-12-02 16:38:25 GMT 50.052475 14.516120 39,000 91 479 64
2021-12-02 16:38:22 GMT 50.052734 14.497870 39,000 91 479 0
2021-12-02 16:38:19 GMT 50.052734 14.497870 39,000 91 479 64
2021-12-02 16:38:16 GMT 50.052967 14.485028 39,000 91 479 64
2021-12-02 16:38:13 GMT 50.053104 14.475304 39,000 91 479 64
2021-12-02 16:38:10 GMT 50.053387 14.454742 39,000 91 479 -64
2021-12-02 16:38:07 GMT 50.053387 14.454742 39,000 91 479 0
2021-12-02 16:38:04 GMT 50.053574 14.440155 39,000 91 479 -64
2021-12-02 16:38:01 GMT 50.053665 14.433289 39,000 91 479 -64
2021-12-02 16:37:57 GMT 50.053898 14.419036 39,025 91 478 -64
2021-12-02 16:37:54 GMT 50.053986 14.410882 39,000 91 478 0
2021-12-02 16:37:51 GMT 50.054131 14.400998 39,000 91 478 64
2021-12-02 16:37:48 GMT 50.054306 14.388837 39,000 91 478 128
2021-12-02 16:37:45 GMT 50.054581 14.367877 39,000 91 478 64
2021-12-02 16:37:42 GMT 50.054581 14.367877 39,000 90 476 -128
2021-12-02 16:37:39 GMT 50.054874 14.349629 39,000 91 478 -64
2021-12-02 16:37:36 GMT 50.054874 14.349629 39,000 91 478 0
2021-12-02 16:37:33 GMT 50.054993 14.339905 39,000 91 478 0
2021-12-02 16:37:30 GMT 50.055267 14.317426 39,000 91 478 64
2021-12-02 16:37:27 GMT 50.055405 14.308102 39,000 91 478 0
2021-12-02 16:37:24 GMT 50.055405 14.308102 39,000 91 478 -64
2021-12-02 16:37:21 GMT 50.055542 14.297405 39,000 91 478 -64
2021-12-02 16:37:18 GMT 50.055668 14.287423 39,000 91 478 -64
2021-12-02 16:37:15 GMT 50.055771 14.277384 39,000 91 478 0
2021-12-02 16:37:12 GMT 50.055908 14.267988 39,000 91 478 0
2021-12-02 16:37:09 GMT 50.056046 14.253966 39,000 91 478 0
2021-12-02 16:37:06 GMT 50.056137 14.247461 39,000 91 478 0
2021-12-02 16:37:03 GMT 50.056316 14.233605 39,000 91 478 0
2021-12-02 16:37:00 GMT 50.056412 14.223609 39,000 91 478 0
2021-12-02 16:36:57 GMT 50.056503 14.216525 39,000 91 478 0
2021-12-02 16:36:54 GMT 50.056644 14.206065 39,000 91 478 0
2021-12-02 16:36:51 GMT 50.056923 14.182830 39,000 91 478 0
2021-12-02 16:36:48 GMT 50.056923 14.182830 39,000 91 478 0
2021-12-02 16:36:45 GMT 50.057007 14.176194 39,000 91 477 64
2021-12-02 16:36:42 GMT 50.057190 14.160582 39,000 91 477 64
2021-12-02 16:36:39 GMT 50.057373 14.145114 39,000 91 477 64
2021-12-02 16:36:36 GMT 50.057510 14.133333 39,000 91 477 64
2021-12-02 16:36:33 GMT 50.057510 14.133333 39,000 91 477 64
2021-12-02 16:36:30 GMT 50.057667 14.123073 39,000 91 477 0
2021-12-02 16:36:27 GMT 50.057785 14.111794 39,000 91 477 0
2021-12-02 16:36:24 GMT 50.057877 14.104638 39,000 91 477 0
2021-12-02 16:36:21 GMT 50.058014 14.091628 39,000 91 477 0
2021-12-02 16:36:18 GMT 50.058243 14.070957 39,000 90 476 -128
2021-12-02 16:36:15 GMT 50.058243 14.070957 39,000 90 476 -64
2021-12-02 16:36:12 GMT 50.058365 14.060570 39,000 90 476 0
2021-12-02 16:36:09 GMT 50.058426 14.051803 39,000 90 476 64
2021-12-02 16:36:06 GMT 50.058552 14.042086 39,000 90 476 64
2021-12-02 16:36:03 GMT 50.058655 14.030625 39,000 90 476 64
2021-12-02 16:36:00 GMT 50.058784 14.019445 39,000 90 476 0
2021-12-02 16:35:57 GMT 50.058880 14.010983 39,000 90 476 -64
2021-12-02 16:35:54 GMT 50.058971 14.002149 39,000 90 475 0
2021-12-02 16:35:51 GMT 50.059063 13.990569 39,000 90 476 -64
2021-12-02 16:35:48 GMT 50.059204 13.979669 39,000 90 475 64
2021-12-02 16:35:45 GMT 50.059296 13.967780 39,000 90 475 64
2021-12-02 16:35:42 GMT 50.059391 13.960876 39,000 91 475 0
2021-12-02 16:35:39 GMT 50.059483 13.949519 39,000 91 475 0
2021-12-02 16:35:36 GMT 50.059753 13.927845 39,000 91 475 0
2021-12-02 16:35:33 GMT 50.059856 13.917822 39,000 91 475 64
2021-12-02 16:35:30 GMT 50.059856 13.917822 39,000 90 475 64
2021-12-02 16:35:27 GMT 50.059982 13.906957 39,000 90 475 0
2021-12-02 16:35:24 GMT 50.060089 13.896963 39,000 90 475 0
2021-12-02 16:35:20 GMT 50.060257 13.884840 39,000 90 475 0
2021-12-02 16:35:17 GMT 50.060349 13.874576 39,000 90 475 0
2021-12-02 16:35:14 GMT 50.060440 13.864674 39,000 90 475 0
2021-12-02 16:35:11 GMT 50.060623 13.850218 39,000 90 475 -64
2021-12-02 16:35:08 GMT 50.060669 13.844580 39,000 90 475 -64
2021-12-02 16:35:05 GMT 50.060806 13.830125 39,000 90 475 0
2021-12-02 16:35:02 GMT 50.060852 13.824848 39,000 90 475 64
2021-12-02 16:34:59 GMT 50.060944 13.813356 39,000 90 475 64
2021-12-02 16:34:56 GMT 50.060989 13.802514 39,000 90 475 64
2021-12-02 16:34:53 GMT 50.061111 13.790291 39,000 90 474 0
2021-12-02 16:34:50 GMT 50.061172 13.780180 39,000 90 474 0
2021-12-02 16:34:46 GMT 50.061264 13.766809 39,000 90 474 0
2021-12-02 16:34:43 GMT 50.061310 13.757268 39,000 90 474 0
2021-12-02 16:34:40 GMT 50.061394 13.747682 39,000 90 474 0
2021-12-02 16:34:37 GMT 50.061440 13.737438 39,000 90 474 -64
2021-12-02 16:34:34 GMT 50.061577 13.718286 39,000 90 474 -64
2021-12-02 16:34:31 GMT 50.061577 13.718286 39,000 90 474 0
2021-12-02 16:34:28 GMT 50.061718 13.698392 39,000 90 474 0
2021-12-02 16:34:25 GMT 50.061718 13.698392 39,000 90 474 0
2021-12-02 16:34:22 GMT 50.061810 13.684511 39,000 90 474 0
2021-12-02 16:34:19 GMT 50.061859 13.677906 39,000 90 474 0
2021-12-02 16:34:16 GMT 50.061951 13.667735 39,000 90 474 0
2021-12-02 16:34:13 GMT 50.062092 13.652888 39,000 90 474 0
2021-12-02 16:34:10 GMT 50.062134 13.645598 39,000 90 474 0
2021-12-02 16:34:07 GMT 50.062229 13.635889 39,000 90 474 -64
2021-12-02 16:34:04 GMT 50.062317 13.624565 39,000 90 474 -64
2021-12-02 16:34:01 GMT 50.062508 13.603153 39,000 90 474 -64
2021-12-02 16:33:58 GMT 50.062508 13.603153 39,000 90 474 0
2021-12-02 16:33:55 GMT 50.062592 13.593846 39,000 90 473 0
2021-12-02 16:33:51 GMT 50.062729 13.578812 39,000 90 473 64
2021-12-02 16:33:48 GMT 50.062836 13.569823 39,000 90 473 64
2021-12-02 16:33:45 GMT 50.062912 13.559875 39,000 90 473 128
2021-12-02 16:33:42 GMT 50.062977 13.552898 39,000 90 473 128
2021-12-02 16:33:39 GMT 50.063049 13.539204 39,000 90 473 0
2021-12-02 16:33:36 GMT 50.063114 13.530628 39,000 90 473 64
2021-12-02 16:33:33 GMT 50.063160 13.519864 39,000 90 473 128
2021-12-02 16:33:30 GMT 50.063232 13.509859 39,000 90 472 64
2021-12-02 16:33:27 GMT 50.063301 13.500861 39,000 90 472 0
2021-12-02 16:33:24 GMT 50.063370 13.487091 39,000 90 472 0
2021-12-02 16:33:21 GMT 50.063393 13.479408 39,000 90 472 0
2021-12-02 16:33:18 GMT 50.063416 13.469311 39,000 90 472 64
2021-12-02 16:33:15 GMT 50.063488 13.459588 39,000 90 472 64
2021-12-02 16:33:12 GMT 50.063534 13.445781 39,000 90 472 64
2021-12-02 16:33:09 GMT 50.063553 13.438954 39,000 90 473 -64
2021-12-02 16:33:06 GMT 50.063599 13.425799 39,000 90 473 64
2021-12-02 16:33:03 GMT 50.063625 13.419726 39,000 90 473 64
2021-12-02 16:33:00 GMT 50.063671 13.405250 39,000 90 473 0
2021-12-02 16:32:56 GMT 50.063736 13.393129 39,000 90 473 0
2021-12-02 16:32:53 GMT 50.063782 13.385973 39,000 90 473 -64
2021-12-02 16:32:50 GMT 50.063812 13.375038 39,000 90 473 -64
2021-12-02 16:32:47 GMT 50.063919 13.363278 39,000 90 472 0
2021-12-02 16:32:44 GMT 50.063965 13.353448 39,000 90 473 0
2021-12-02 16:32:41 GMT 50.064102 13.336246 39,000 90 473 64
2021-12-02 16:32:38 GMT 50.064102 13.336246 39,000 90 472 0
2021-12-02 16:32:35 GMT 50.064148 13.324320 39,000 90 472 -64
2021-12-02 16:32:32 GMT 50.064232 13.312535 39,000 90 472 -64
2021-12-02 16:32:29 GMT 50.064369 13.294199 39,000 90 472 0
2021-12-02 16:32:26 GMT 50.064369 13.294199 39,000 90 472 0
2021-12-02 16:32:23 GMT 50.064419 13.281951 39,000 90 472 0
2021-12-02 16:32:20 GMT 50.064556 13.263616 39,000 90 472 0
2021-12-02 16:32:17 GMT 50.064556 13.263616 39,000 90 472 64
2021-12-02 16:32:14 GMT 50.064606 13.252704 39,000 90 472 0
2021-12-02 16:32:11 GMT 50.064606 13.242682 39,000 90 473 -64
2021-12-02 16:32:08 GMT 50.064651 13.232454 39,000 90 473 -64
2021-12-02 16:32:05 GMT 50.064697 13.222343 39,000 90 473 -64
2021-12-02 16:32:02 GMT 50.064697 13.212722 39,000 90 473 -64
2021-12-02 16:31:59 GMT 50.064743 13.202300 39,000 90 473 0
2021-12-02 16:31:55 GMT 50.064789 13.186489 39,000 90 473 128
2021-12-02 16:31:52 GMT 50.064789 13.178175 39,000 90 473 64
2021-12-02 16:31:49 GMT 50.064880 13.157573 39,000 90 473 64
2021-12-02 16:31:46 GMT 50.064880 13.157573 39,000 90 473 0
2021-12-02 16:31:43 GMT 50.064930 13.146923 39,000 90 473 0
2021-12-02 16:31:40 GMT 50.064930 13.138015 39,000 90 473 0
2021-12-02 16:31:37 GMT 50.064972 13.129674 39,000 90 473 0
2021-12-02 16:31:34 GMT 50.065022 13.115597 39,000 90 473 0
2021-12-02 16:31:31 GMT 50.065063 13.107123 39,000 90 474 0
2021-12-02 16:31:28 GMT 50.065063 13.096209 39,000 90 474 0
2021-12-02 16:31:25 GMT 50.065117 13.084271 39,000 90 474 64
2021-12-02 16:31:22 GMT 50.065163 13.076106 39,000 90 474 64
2021-12-02 16:31:19 GMT 50.065201 13.065924 39,000 90 474 64
2021-12-02 16:31:15 GMT 50.065292 13.052047 39,000 90 474 64
2021-12-02 16:31:12 GMT 50.065350 13.041365 39,000 90 474 -128
2021-12-02 16:31:09 GMT 50.065384 13.031664 39,000 90 474 -128
2021-12-02 16:31:06 GMT 50.065430 13.022557 39,000 90 474 -128
2021-12-02 16:31:03 GMT 50.065475 13.012005 39,000 90 474 64
2021-12-02 16:31:00 GMT 50.065521 13.002175 39,000 90 474 64
2021-12-02 16:30:57 GMT 50.065613 12.988586 39,000 90 474 64
2021-12-02 16:30:54 GMT 50.065628 12.979159 39,000 90 474 64
2021-12-02 16:30:51 GMT 50.065659 12.970950 39,000 90 474 -64
2021-12-02 16:30:47 GMT 50.065750 12.950351 39,000 90 474 -64
2021-12-02 16:30:44 GMT 50.065769 12.945161 39,000 90 474 0
2021-12-02 16:30:41 GMT 50.065815 12.934917 39,000 90 474 -64
2021-12-02 16:30:38 GMT 50.065861 12.914503 39,000 90 474 -64
2021-12-02 16:30:35 GMT 50.065861 12.914503 39,000 90 474 128
2021-12-02 16:30:32 GMT 50.065907 12.906634 39,000 90 474 128
2021-12-02 16:30:29 GMT 50.065933 12.896287 39,000 90 474 128
2021-12-02 16:30:26 GMT 50.065979 12.887903 39,000 90 474 0
2021-12-02 16:30:23 GMT 50.066048 12.876273 39,000 90 474 -64
2021-12-02 16:30:20 GMT 50.066071 12.863834 39,000 90 474 -64
2021-12-02 16:30:17 GMT 50.066093 12.846284 39,000 90 474 0
2021-12-02 16:30:14 GMT 50.066093 12.846284 39,000 90 474 0
2021-12-02 16:30:11 GMT 50.066162 12.825598 39,000 90 475 64
2021-12-02 16:30:08 GMT 50.066162 12.825598 39,000 90 474 64
2021-12-02 16:30:05 GMT 50.066162 12.814540 39,000 90 475 64
2021-12-02 16:30:02 GMT 50.066139 12.805308 39,000 90 475 64
2021-12-02 16:29:59 GMT 50.066189 12.794990 39,000 90 475 0
2021-12-02 16:29:56 GMT 50.066189 12.781628 39,000 90 475 -64
2021-12-02 16:29:53 GMT 50.066208 12.773847 39,000 89 475 -64
2021-12-02 16:29:50 GMT 50.066208 12.763511 39,000 89 475 0
2021-12-02 16:29:47 GMT 50.066189 12.751564 39,000 89 475 0
2021-12-02 16:29:43 GMT 50.066162 12.737780 39,000 89 475 64
2021-12-02 16:29:40 GMT 50.066093 12.725211 39,000 89 475 0
2021-12-02 16:29:37 GMT 50.066116 12.720289 39,000 89 475 -64
2021-12-02 16:29:33 GMT 50.066071 12.705544 39,000 89 475 -64
2021-12-02 16:29:30 GMT 50.066048 12.694479 39,000 89 475 0
2021-12-02 16:29:27 GMT 50.066002 12.684458 39,000 89 475 64
2021-12-02 16:29:24 GMT 50.065887 12.664128 39,000 89 475 128
2021-12-02 16:29:21 GMT 50.065796 12.650685 39,000 89 475 0
2021-12-02 16:29:17 GMT 50.065796 12.650685 39,000 89 475 0
2021-12-02 16:29:12 GMT 50.065720 12.633312 39,000 89 475 0
2021-12-02 16:29:09 GMT 50.065674 12.622994 39,000 89 475 64
2021-12-02 16:29:06 GMT 50.065628 12.614606 39,000 89 475 64
2021-12-02 16:29:03 GMT 50.065567 12.604209 39,000 89 474 -64
2021-12-02 16:29:00 GMT 50.065491 12.591817 39,000 91 474 0
2021-12-02 16:28:57 GMT 50.065441 12.583057 39,025 89 474 -128
2021-12-02 16:28:54 GMT 50.065292 12.561132 39,025 89 474 -128
2021-12-02 16:28:51 GMT 50.065292 12.561132 39,025 89 474 0
2021-12-02 16:28:48 GMT 50.065201 12.552530 39,025 89 474 64
2021-12-02 16:28:45 GMT 50.065063 12.530702 39,000 89 474 64
2021-12-02 16:28:42 GMT 50.065063 12.530702 39,000 89 474 0
2021-12-02 16:28:39 GMT 50.065018 12.521451 39,000 89 474 -64
2021-12-02 16:28:36 GMT 50.064926 12.513066 39,000 89 474 -64
2021-12-02 16:28:33 GMT 50.064835 12.499623 39,000 89 474 -64
2021-12-02 16:28:30 GMT 50.064789 12.490949 39,000 89 474 64
2021-12-02 16:28:27 GMT 50.064743 12.482250 39,000 89 474 64
2021-12-02 16:28:24 GMT 50.064743 12.468814 39,000 90 474 64
2021-12-02 16:28:21 GMT 50.064743 12.458135 39,000 90 474 64
2021-12-02 16:28:18 GMT 50.064743 12.448811 39,000 90 474 0
2021-12-02 16:28:15 GMT 50.064789 12.439122 39,000 90 474 -64
2021-12-02 16:28:12 GMT 50.064835 12.431536 39,000 91 474 -64
2021-12-02 16:28:09 GMT 50.064972 12.420116 39,000 91 474 -64
2021-12-02 16:28:06 GMT 50.065304 12.394731 39,000 91 474 64
2021-12-02 16:28:02 GMT 50.065304 12.394731 39,000 91 474 128
2021-12-02 16:27:59 GMT 50.065491 12.383596 39,000 91 474 64
2021-12-02 16:27:56 GMT 50.065567 12.376460 39,000 91 473 0
2021-12-02 16:27:53 GMT 50.065720 12.364890 39,000 91 474 64
2021-12-02 16:27:50 GMT 50.065861 12.355017 39,000 91 474 64
2021-12-02 16:27:47 GMT 50.066139 12.334826 39,000 91 474 0
2021-12-02 16:27:44 GMT 50.066139 12.334826 39,000 91 474 0
2021-12-02 16:27:41 GMT 50.066254 12.325359 39,000 91 474 -64
2021-12-02 16:27:38 GMT 50.066437 12.313144 39,000 91 474 -64
2021-12-02 16:27:34 GMT 50.066620 12.299917 39,000 91 473 0
2021-12-02 16:27:31 GMT 50.066757 12.289437 39,000 91 473 0
2021-12-02 16:27:28 GMT 50.066887 12.279226 39,000 91 473 0
2021-12-02 16:27:25 GMT 50.067024 12.272545 39,000 91 473 0
2021-12-02 16:27:22 GMT 50.067211 12.260148 39,000 91 473 0
2021-12-02 16:27:19 GMT 50.067398 12.247752 39,000 91 473 64
2021-12-02 16:27:16 GMT 50.067490 12.239492 39,000 91 473 0
2021-12-02 16:27:13 GMT 50.067627 12.229662 39,000 91 473 0
2021-12-02 16:27:10 GMT 50.067810 12.217231 39,000 91 473 -64
2021-12-02 16:27:06 GMT 50.067955 12.206850 39,000 91 473 0
2021-12-02 16:27:03 GMT 50.068314 12.184778 39,000 91 473 0
2021-12-02 16:27:00 GMT 50.068314 12.184778 39,000 91 473 0
2021-12-02 16:26:57 GMT 50.068466 12.174188 39,000 91 473 -64
2021-12-02 16:26:54 GMT 50.068562 12.167507 39,000 91 473 -64
2021-12-02 16:26:51 GMT 50.068726 12.156878 39,000 91 473 -64
2021-12-02 16:26:48 GMT 50.068935 12.140635 39,000 91 473 -64
2021-12-02 16:26:45 GMT 50.069027 12.134251 39,000 90 471 0
2021-12-02 16:26:42 GMT 50.069183 12.123413 39,000 90 473 64
2021-12-02 16:26:39 GMT 50.069321 12.112210 39,000 90 473 128
2021-12-02 16:26:36 GMT 50.069447 12.101069 39,000 90 473 64
2021-12-02 16:26:32 GMT 50.069492 12.092755 39,000 90 473 0
2021-12-02 16:26:29 GMT 50.069633 12.077167 39,000 90 473 -64
2021-12-02 16:26:26 GMT 50.069679 12.070783 39,000 90 473 -128
2021-12-02 16:26:23 GMT 50.069771 12.058683 39,000 90 473 -64
2021-12-02 16:26:20 GMT 50.069817 12.049701 39,000 90 472 0
2021-12-02 16:26:17 GMT 50.069912 12.039828 39,000 90 472 0
2021-12-02 16:26:14 GMT 50.070007 12.027138 39,000 90 472 0
2021-12-02 16:26:10 GMT 50.070099 12.013550 39,000 90 472 0
2021-12-02 16:26:07 GMT 50.070145 12.004732 39,000 90 472 0
2021-12-02 16:26:04 GMT 50.070236 11.992468 39,000 90 472 0
2021-12-02 16:26:01 GMT 50.070282 11.985867 39,000 90 472 0
2021-12-02 16:25:58 GMT 50.070328 11.972857 39,000 90 472 -128
2021-12-02 16:25:55 GMT 50.070419 11.965846 39,000 90 472 -128
2021-12-02 16:25:52 GMT 50.070465 11.954860 39,000 90 471 -64
2021-12-02 16:25:48 GMT 50.070610 11.939541 39,000 90 471 64
2021-12-02 16:25:45 GMT 50.070656 11.929519 39,000 90 471 64
2021-12-02 16:25:42 GMT 50.070740 11.921033 39,000 90 471 64
2021-12-02 16:25:39 GMT 50.070831 11.911420 39,000 90 471 0
2021-12-02 16:25:36 GMT 50.070923 11.901590 39,000 90 471 -64
2021-12-02 16:25:33 GMT 50.070984 11.891216 39,000 90 469 -64
2021-12-02 16:25:29 GMT 50.071106 11.876582 39,000 90 470 0
2021-12-02 16:25:26 GMT 50.071217 11.867239 39,000 90 470 64
2021-12-02 16:25:23 GMT 50.071289 11.854754 39,000 90 470 64
2021-12-02 16:25:19 GMT 50.071354 11.845934 39,000 90 470 0
2021-12-02 16:25:16 GMT 50.071472 11.830396 39,000 90 469 -64
2021-12-02 16:25:13 GMT 50.071518 11.823891 39,000 90 468 -64
2021-12-02 16:25:10 GMT 50.071564 11.814495 39,000 90 468 0
2021-12-02 16:25:07 GMT 50.071701 11.802352 39,000 90 469 0
2021-12-02 16:25:04 GMT 50.071747 11.794329 39,000 90 469 0
2021-12-02 16:25:01 GMT 50.071819 11.784470 39,000 90 469 64
2021-12-02 16:24:58 GMT 50.071915 11.773855 39,000 90 468 64
2021-12-02 16:24:54 GMT 50.072021 11.760647 39,000 90 468 -64
2021-12-02 16:24:51 GMT 50.072098 11.750694 39,000 90 467 64
2021-12-02 16:24:48 GMT 50.072159 11.740409 39,000 90 468 0
2021-12-02 16:24:45 GMT 50.072250 11.728050 39,000 90 467 64
2021-12-02 16:24:42 GMT 50.072388 11.707017 39,000 90 467 64
2021-12-02 16:24:39 GMT 50.072388 11.707017 39,000 90 467 64
2021-12-02 16:24:36 GMT 50.072472 11.697099 39,000 90 467 64
2021-12-02 16:24:33 GMT 50.072662 11.675865 39,000 90 467 64
2021-12-02 16:24:30 GMT 50.072662 11.675865 39,000 90 467 0
2021-12-02 16:24:26 GMT 50.072750 11.665847 39,000 90 467 0
2021-12-02 16:24:23 GMT 50.072845 11.656123 39,000 90 467 0
2021-12-02 16:24:20 GMT 50.072891 11.645508 39,000 90 467 0
2021-12-02 16:24:17 GMT 50.072983 11.636039 39,000 90 467 64
2021-12-02 16:24:14 GMT 50.073074 11.623318 39,000 90 467 64
2021-12-02 16:24:11 GMT 50.073120 11.614284 39,000 90 467 0
2021-12-02 16:24:07 GMT 50.073170 11.602156 39,000 90 467 -64
2021-12-02 16:24:04 GMT 50.073215 11.592284 39,000 90 466 -64
2021-12-02 16:24:01 GMT 50.073303 11.580891 39,000 90 466 -64
2021-12-02 16:23:57 GMT 50.073357 11.568975 39,000 90 466 0
2021-12-02 16:23:54 GMT 50.073395 11.557473 39,000 90 466 64
2021-12-02 16:23:51 GMT 50.073448 11.549155 39,000 90 466 128
2021-12-02 16:23:48 GMT 50.073441 11.538463 39,000 90 467 64
2021-12-02 16:23:45 GMT 50.073544 11.519388 39,000 90 467 64
2021-12-02 16:23:42 GMT 50.073544 11.519388 39,000 90 467 -64
2021-12-02 16:23:39 GMT 50.073578 11.508974 39,000 90 467 -64
2021-12-02 16:23:36 GMT 50.073669 11.488447 39,000 90 466 0
2021-12-02 16:23:33 GMT 50.073715 11.478545 39,000 90 467 0
2021-12-02 16:23:30 GMT 50.073715 11.478545 39,000 90 467 0
2021-12-02 16:23:27 GMT 50.073776 11.468465 39,000 90 466 0
2021-12-02 16:23:24 GMT 50.073822 11.456513 39,000 90 467 0
2021-12-02 16:23:21 GMT 50.073898 11.446670 39,000 90 467 0
2021-12-02 16:23:18 GMT 50.073914 11.440256 39,000 90 466 0
2021-12-02 16:23:15 GMT 50.074009 11.425633 39,000 90 466 0
2021-12-02 16:23:12 GMT 50.074036 11.416313 39,000 90 466 0
2021-12-02 16:23:09 GMT 50.074055 11.408188 39,000 90 466 -64
2021-12-02 16:23:06 GMT 50.074081 11.399616 39,000 90 466 -128
2021-12-02 16:23:03 GMT 50.074127 11.388269 39,000 90 466 -64
2021-12-02 16:23:00 GMT 50.074242 11.368400 39,000 90 466 128
2021-12-02 16:22:57 GMT 50.074242 11.368400 39,000 90 466 128
2021-12-02 16:22:54 GMT 50.074242 11.357562 39,000 90 466 64
2021-12-02 16:22:51 GMT 50.074265 11.344251 39,000 90 466 64
2021-12-02 16:22:48 GMT 50.074287 11.337519 39,000 90 466 -128
2021-12-02 16:22:45 GMT 50.074310 11.330590 39,000 90 466 -64
2021-12-02 16:22:42 GMT 50.074333 11.317922 39,000 90 466 -64
2021-12-02 16:22:39 GMT 50.074379 11.304560 39,000 90 465 0
2021-12-02 16:22:36 GMT 50.074402 11.297921 39,000 90 465 64
2021-12-02 16:22:33 GMT 50.074448 11.284260 39,000 90 465 128
2021-12-02 16:22:30 GMT 50.074493 11.278189 39,000 90 465 128
2021-12-02 16:22:27 GMT 50.074474 11.268632 39,000 90 465 64
2021-12-02 16:22:24 GMT 50.074520 11.255048 39,000 90 465 -128
2021-12-02 16:22:21 GMT 50.074539 11.248554 39,000 90 465 0
2021-12-02 16:22:18 GMT 50.074539 11.238725 39,000 90 465 0
2021-12-02 16:22:15 GMT 50.074612 11.225875 39,000 90 465 0
2021-12-02 16:22:12 GMT 50.074612 11.216002 39,000 90 465 0
2021-12-02 16:22:09 GMT 50.074631 11.207645 39,000 90 465 0
2021-12-02 16:22:06 GMT 50.074768 11.183865 39,000 90 465 0
2021-12-02 16:22:03 GMT 50.074799 11.177624 39,000 90 465 0
2021-12-02 16:22:00 GMT 50.074844 11.165004 39,000 90 465 0
2021-12-02 16:21:57 GMT 50.074844 11.165004 39,000 90 465 64
2021-12-02 16:21:54 GMT 50.074890 11.157062 39,000 90 465 0
2021-12-02 16:21:51 GMT 50.074951 11.147509 39,000 90 465 0
2021-12-02 16:21:48 GMT 50.074986 11.138207 39,000 90 465 0
2021-12-02 16:21:45 GMT 50.075031 11.126181 39,000 90 465 64
2021-12-02 16:21:42 GMT 50.075043 11.118164 38,975 90 465 0
2021-12-02 16:21:39 GMT 50.075089 11.106672 38,975 90 465 -128
2021-12-02 16:21:36 GMT 50.075134 11.094746 38,975 90 465 -128
2021-12-02 16:21:33 GMT 50.075172 11.088100 39,000 90 465 -128
2021-12-02 16:21:30 GMT 50.075172 11.075852 39,000 90 465 -128
2021-12-02 16:21:27 GMT 50.075264 11.058853 39,000 90 465 -64
2021-12-02 16:21:24 GMT 50.075264 11.058853 39,000 90 464 0
2021-12-02 16:21:21 GMT 50.075272 11.046536 39,000 90 464 0
2021-12-02 16:21:18 GMT 50.075310 11.037994 39,000 90 464 0
2021-12-02 16:21:15 GMT 50.075310 11.027453 39,000 90 466 64
2021-12-02 16:21:12 GMT 50.075310 11.003921 39,000 90 465 64
2021-12-02 16:21:08 GMT 50.075310 11.003921 39,000 90 465 64
2021-12-02 16:21:05 GMT 50.075310 10.995459 39,000 90 465 -64
2021-12-02 16:21:02 GMT 50.075317 10.983582 39,000 90 466 -64
2021-12-02 16:20:59 GMT 50.075317 10.972378 39,000 90 466 -64
2021-12-02 16:20:56 GMT 50.075317 10.963850 39,000 90 466 -64
2021-12-02 16:20:52 GMT 50.075317 10.945491 39,000 90 466 64
2021-12-02 16:20:49 GMT 50.075317 10.940359 39,000 90 466 64
2021-12-02 16:20:47 GMT 50.075359 10.932510 39,000 90 466 64
2021-12-02 16:20:44 GMT 50.075359 10.924270 39,000 90 466 0
2021-12-02 16:20:41 GMT 50.075359 10.914397 39,000 90 466 0
2021-12-02 16:20:38 GMT 50.075359 10.906083 39,000 90 466 0
2021-12-02 16:20:36 GMT 50.075359 10.888268 39,000 89 466 0
2021-12-02 16:20:33 GMT 50.075359 10.888268 39,000 90 466 0
2021-12-02 16:20:30 GMT 50.075359 10.877949 39,000 89 466 0
2021-12-02 16:20:27 GMT 50.075363 10.854131 39,000 89 466 0
2021-12-02 16:20:24 GMT 50.075363 10.854131 39,000 89 466 0
2021-12-02 16:20:21 GMT 50.075310 10.845139 39,000 89 466 64
2021-12-02 16:20:18 GMT 50.075317 10.838157 39,000 89 466 0
2021-12-02 16:20:16 GMT 50.075317 10.827532 39,000 89 467 64
2021-12-02 16:20:13 GMT 50.075310 10.820642 39,000 89 466 64
2021-12-02 16:20:10 GMT 50.075272 10.812426 39,000 89 467 0
2021-12-02 16:20:07 GMT 50.075264 10.798002 39,000 89 467 0
2021-12-02 16:20:04 GMT 50.075226 10.790164 39,000 89 467 0
2021-12-02 16:20:01 GMT 50.075180 10.768698 39,000 89 467 -128
2021-12-02 16:19:58 GMT 50.075180 10.768698 39,000 89 467 64
2021-12-02 16:19:55 GMT 50.075134 10.748821 39,000 89 467 64
2021-12-02 16:19:52 GMT 50.075134 10.748821 39,000 89 467 0
2021-12-02 16:19:49 GMT 50.075127 10.740472 39,000 89 467 0
2021-12-02 16:19:46 GMT 50.075127 10.730896 39,000 89 467 -128
2021-12-02 16:19:43 GMT 50.075089 10.719331 39,000 89 467 -128
2021-12-02 16:19:40 GMT 50.075043 10.710658 39,000 89 467 0
2021-12-02 16:19:37 GMT 50.074986 10.700387 39,000 89 467 -64
2021-12-02 16:19:34 GMT 50.074940 10.686876 39,000 89 467 64
2021-12-02 16:19:30 GMT 50.074890 10.676484 39,000 89 467 0
2021-12-02 16:19:27 GMT 50.074860 10.664111 39,000 89 467 -64
2021-12-02 16:19:24 GMT 50.074814 10.653992 39,000 89 466 -128
2021-12-02 16:19:21 GMT 50.074753 10.635731 39,000 89 466 0
2021-12-02 16:19:18 GMT 50.074753 10.635731 39,000 89 466 0
2021-12-02 16:19:16 GMT 50.074722 10.627899 39,000 89 466 64
2021-12-02 16:19:13 GMT 50.074677 10.616335 39,000 89 466 64
2021-12-02 16:19:10 GMT 50.074657 10.610121 39,000 89 466 -64
2021-12-02 16:19:07 GMT 50.074612 10.600322 39,000 89 466 64
2021-12-02 16:19:05 GMT 50.074585 10.590387 39,000 89 467 0
2021-12-02 16:19:02 GMT 50.074585 10.582581 39,000 89 466 -64
2021-12-02 16:18:59 GMT 50.074539 10.572895 39,000 89 467 0
2021-12-02 16:18:56 GMT 50.074520 10.564097 39,000 89 466 0
2021-12-02 16:18:53 GMT 50.074493 10.549983 39,000 89 466 64
2021-12-02 16:18:50 GMT 50.074493 10.543044 39,000 89 467 64
2021-12-02 16:18:47 GMT 50.074448 10.532708 39,000 89 466 0
2021-12-02 16:18:44 GMT 50.074448 10.522517 39,000 89 466 0
2021-12-02 16:18:41 GMT 50.074429 10.502410 39,000 89 467 64
2021-12-02 16:18:38 GMT 50.074429 10.502410 39,000 90 467 64
2021-12-02 16:18:36 GMT 50.074429 10.494393 39,000 89 467 0
2021-12-02 16:18:33 GMT 50.074429 10.488306 39,000 89 467 0
2021-12-02 16:18:30 GMT 50.074402 10.476620 39,000 89 467 -64
2021-12-02 16:18:27 GMT 50.074356 10.466718 39,000 89 467 -64
2021-12-02 16:18:24 GMT 50.074356 10.455587 39,000 89 467 0
2021-12-02 16:18:21 GMT 50.074333 10.446810 39,000 89 467 0
2021-12-02 16:18:18 GMT 50.074287 10.434785 39,000 89 467 64
2021-12-02 16:18:16 GMT 50.074310 10.425592 39,000 89 467 -64
2021-12-02 16:18:13 GMT 50.074265 10.409112 39,000 90 468 -64
2021-12-02 16:18:10 GMT 50.074265 10.409112 39,025 89 467 -128
2021-12-02 16:18:07 GMT 50.074265 10.398632 39,000 89 467 -128
2021-12-02 16:18:04 GMT 50.074242 10.379259 39,000 89 467 64
2021-12-02 16:18:01 GMT 50.074242 10.379259 39,000 89 467 64
2021-12-02 16:17:58 GMT 50.074219 10.368058 39,000 89 467 64
2021-12-02 16:17:55 GMT 50.074196 10.358920 39,000 90 468 0
2021-12-02 16:17:52 GMT 50.074173 10.348254 39,000 90 467 64
2021-12-02 16:17:49 GMT 50.074196 10.338654 39,000 90 467 64
2021-12-02 16:17:46 GMT 50.074196 10.327074 39,000 90 468 0
2021-12-02 16:17:43 GMT 50.074242 10.306067 39,000 90 468 -64
2021-12-02 16:17:40 GMT 50.074242 10.306067 39,000 90 468 -64
2021-12-02 16:17:37 GMT 50.074265 10.299321 39,000 90 468 -64
2021-12-02 16:17:34 GMT 50.074310 10.285371 39,000 90 468 64
2021-12-02 16:17:31 GMT 50.074356 10.276915 39,000 90 469 0
2021-12-02 16:17:28 GMT 50.074379 10.266130 39,000 90 468 64
2021-12-02 16:17:25 GMT 50.074474 10.254550 39,000 90 468 64
2021-12-02 16:17:22 GMT 50.074539 10.249232 39,000 89 467 768
2021-12-02 16:17:19 GMT 50.074657 10.235398 39,000 90 468 64
2021-12-02 16:17:16 GMT 50.074677 10.229067 39,000 90 468 0
2021-12-02 16:17:13 GMT 50.074860 10.209696 39,000 90 469 0
2021-12-02 16:17:10 GMT 50.074860 10.209696 39,000 90 469 0
2021-12-02 16:17:07 GMT 50.074940 10.197243 39,000 90 469 0
2021-12-02 16:17:04 GMT 50.074986 10.187073 39,000 89 469 0
2021-12-02 16:17:01 GMT 50.074997 10.176448 39,000 90 469 0
2021-12-02 16:16:57 GMT 50.074997 10.163727 39,000 89 469 -64
2021-12-02 16:16:53 GMT 50.074905 10.146380 39,000 88 469 -64
2021-12-02 16:16:50 GMT 50.074844 10.139861 39,000 88 469 -64
2021-12-02 16:16:47 GMT 50.074707 10.129543 39,000 88 469 -64
2021-12-02 16:16:45 GMT 50.074474 10.111059 39,000 88 469 0
2021-12-02 16:16:42 GMT 50.074474 10.111059 39,000 88 469 0
2021-12-02 16:16:39 GMT 50.074402 10.104531 39,000 88 469 64
2021-12-02 16:16:36 GMT 50.074265 10.096002 39,000 88 470 128
2021-12-02 16:16:33 GMT 50.074100 10.083965 39,000 88 469 128
2021-12-02 16:16:30 GMT 50.074009 10.072830 38,975 88 470 128
2021-12-02 16:16:27 GMT 50.073822 10.059542 38,975 88 470 64
2021-12-02 16:16:23 GMT 50.073727 10.050783 38,975 89 470 0
2021-12-02 16:16:20 GMT 50.073578 10.039046 39,000 89 470 -64
2021-12-02 16:16:17 GMT 50.073486 10.029000 39,000 89 468 448
2021-12-02 16:16:14 GMT 50.073441 10.019314 39,000 89 470 -128
2021-12-02 16:16:11 GMT 50.073349 10.009340 39,000 89 470 -128
2021-12-02 16:16:08 GMT 50.073257 9.999582 39,025 89 468 0
2021-12-02 16:16:05 GMT 50.073166 9.988885 39,025 89 468 128
2021-12-02 16:16:02 GMT 50.073029 9.970165 38,900 89 467 896
2021-12-02 16:15:59 GMT 50.073029 9.970165 38,975 89 468 576
2021-12-02 16:15:56 GMT 50.072937 9.958384 38,925 89 468 896
2021-12-02 16:15:53 GMT 50.072845 9.949855 38,875 89 467 896
2021-12-02 16:15:50 GMT 50.072613 9.927038 38,800 89 468 832
2021-12-02 16:15:47 GMT 50.072613 9.927038 38,850 89 467 896
2021-12-02 16:15:45 GMT 50.072563 9.918576 38,800 89 468 832
2021-12-02 16:15:42 GMT 50.072426 9.902987 38,750 89 467 768
2021-12-02 16:15:39 GMT 50.072426 9.902987 38,725 89 467 768
2021-12-02 16:15:36 GMT 50.072285 9.889625 38,700 89 467 832
2021-12-02 16:15:32 GMT 50.072147 9.875818 38,575 89 467 832
2021-12-02 16:15:29 GMT 50.071960 9.858448 38,575 89 467 832
2021-12-02 16:15:26 GMT 50.071960 9.858448 38,475 89 464 576
2021-12-02 16:15:23 GMT 50.071865 9.849689 38,500 89 467 704
2021-12-02 16:15:20 GMT 50.071728 9.836327 38,450 89 466 640
2021-12-02 16:15:17 GMT 50.071655 9.827415 38,450 89 466 640
2021-12-02 16:15:14 GMT 50.071472 9.807611 38,250 89 466 704
2021-12-02 16:15:11 GMT 50.071426 9.799660 38,325 89 463 0
2021-12-02 16:15:08 GMT 50.071426 9.799660 38,325 89 466 768
2021-12-02 16:15:05 GMT 50.071217 9.775085 38,225 89 465 576
2021-12-02 16:15:02 GMT 50.071106 9.764388 38,250 89 465 576
2021-12-02 16:14:59 GMT 50.071106 9.764388 38,225 89 465 576
2021-12-02 16:14:56 GMT 50.071060 9.759256 38,200 89 464 576
2021-12-02 16:14:53 GMT 50.070889 9.745764 38,150 89 464 640
2021-12-02 16:14:50 GMT 50.070843 9.739231 38,125 89 463 768
2021-12-02 16:14:47 GMT 50.070694 9.726587 38,100 89 463 832
2021-12-02 16:14:44 GMT 50.070465 9.708806 38,050 89 463 896
2021-12-02 16:14:41 GMT 50.070465 9.708806 37,975 89 463 896
2021-12-02 16:14:38 GMT 50.070374 9.698615 37,975 89 462 1344
2021-12-02 16:14:35 GMT 50.070190 9.685042 37,925 89 463 960
2021-12-02 16:14:32 GMT 50.070099 9.676281 37,875 89 463 960
2021-12-02 16:14:29 GMT 50.069916 9.659440 37,825 89 462 1344
2021-12-02 16:14:26 GMT 50.069916 9.659440 37,775 89 463 960
2021-12-02 16:14:24 GMT 50.069870 9.651706 37,725 89 463 960
2021-12-02 16:14:21 GMT 50.069641 9.629155 37,700 89 462 768
2021-12-02 16:14:18 GMT 50.069584 9.622019 37,625 89 462 704
2021-12-02 16:14:15 GMT 50.069584 9.622019 37,600 89 462 832
2021-12-02 16:14:12 GMT 50.069492 9.611701 37,550 89 462 1216
2021-12-02 16:14:09 GMT 50.069366 9.593450 37,500 89 462 1344
2021-12-02 16:14:06 GMT 50.069366 9.593450 37,250 89 462 1344
2021-12-02 16:14:04 GMT 50.069275 9.584993 37,375 89 463 1280
2021-12-02 16:14:01 GMT 50.069214 9.575030 37,325 89 463 1216
2021-12-02 16:13:58 GMT 50.069118 9.564786 37,200 89 463 1408
2021-12-02 16:13:55 GMT 50.069046 9.556226 37,175 89 463 1472
2021-12-02 16:13:52 GMT 50.068840 9.535019 37,125 89 464 1472
2021-12-02 16:13:49 GMT 50.068840 9.535019 37,050 89 464 1344
2021-12-02 16:13:46 GMT 50.068726 9.526447 37,000 89 464 1344
2021-12-02 16:13:44 GMT 50.068653 9.517946 36,975 89 464 1344
2021-12-02 16:13:41 GMT 50.068542 9.510908 36,925 89 464 1280
2021-12-02 16:13:38 GMT 50.068405 9.496307 36,825 89 465 1216
2021-12-02 16:13:35 GMT 50.068283 9.487140 36,725 89 465 1024
2021-12-02 16:13:32 GMT 50.068188 9.476673 36,700 89 465 1280
2021-12-02 16:13:29 GMT 50.068085 9.469709 36,625 88 464 1024
2021-12-02 16:13:26 GMT 50.067955 9.458783 36,625 88 464 1216
2021-12-02 16:13:24 GMT 50.067856 9.450049 36,550 89 464 1280
2021-12-02 16:13:21 GMT 50.067768 9.443566 36,500 89 465 1280
2021-12-02 16:13:18 GMT 50.067677 9.433099 36,400 89 465 1024
2021-12-02 16:13:15 GMT 50.067398 9.410368 35,750 88 466 1536
2021-12-02 16:13:12 GMT 50.067398 9.410368 35,850 88 467 1280
2021-12-02 16:13:09 GMT 50.067215 9.392515 36,250 89 465 1408
2021-12-02 16:13:06 GMT 50.067215 9.392515 36,175 89 465 1472
2021-12-02 16:13:04 GMT 50.067120 9.385516 36,125 89 465 1472
2021-12-02 16:13:01 GMT 50.066978 9.373416 36,075 89 466 1472
2021-12-02 16:12:58 GMT 50.066887 9.363766 36,000 88 466 1408
2021-12-02 16:12:55 GMT 50.066757 9.353630 35,925 88 466 1536
2021-12-02 16:12:52 GMT 50.066666 9.346402 35,825 88 466 1536
2021-12-02 16:12:49 GMT 50.066483 9.333247 35,700 88 467 1408
2021-12-02 16:12:46 GMT 50.066372 9.325388 35,650 88 467 1280
2021-12-02 16:12:44 GMT 50.066235 9.316852 35,300 88 468 1408
2021-12-02 16:12:41 GMT 50.066071 9.306143 35,575 88 467 1280
2021-12-02 16:12:38 GMT 50.065979 9.299999 35,525 88 467 1344
2021-12-02 16:12:35 GMT 50.065769 9.287010 35,425 88 468 1408
2021-12-02 16:12:32 GMT 50.065628 9.276247 35,400 88 468 1408
2021-12-02 16:12:29 GMT 50.065304 9.257540 35,275 88 468 1280
2021-12-02 16:12:26 GMT 50.065201 9.251139 35,250 88 468 1280
2021-12-02 16:12:24 GMT 50.065201 9.251139 35,200 88 468 1216
2021-12-02 16:12:21 GMT 50.065063 9.243333 35,150 88 468 1152
2021-12-02 16:12:18 GMT 50.064930 9.232970 35,100 88 468 1152
2021-12-02 16:12:15 GMT 50.064743 9.222733 35,075 88 467 1024
2021-12-02 16:12:12 GMT 50.064560 9.211819 34,975 88 466 1088
2021-12-02 16:12:09 GMT 50.064377 9.202279 34,925 88 465 1088
2021-12-02 16:12:06 GMT 50.064140 9.186797 34,875 88 466 1088
2021-12-02 16:12:02 GMT 50.064011 9.179872 34,775 88 465 960
2021-12-02 16:11:59 GMT 50.063812 9.168685 34,750 88 465 960
2021-12-02 16:11:56 GMT 50.063625 9.156436 34,725 88 465 960
2021-12-02 16:11:54 GMT 50.063370 9.142071 34,650 88 464 1024
2021-12-02 16:11:51 GMT 50.063160 9.129787 34,600 88 464 1088
2021-12-02 16:11:48 GMT 50.063160 9.129787 34,525 88 463 1344
2021-12-02 16:11:45 GMT 50.063004 9.121110 34,375 88 463 1216
2021-12-02 16:11:42 GMT 50.062820 9.112075 34,425 88 463 1216
2021-12-02 16:11:39 GMT 50.062592 9.098053 34,350 88 463 1024
2021-12-02 16:11:36 GMT 50.062279 9.081536 34,300 88 462 960
2021-12-02 16:11:33 GMT 50.062279 9.081536 34,250 88 461 896
2021-12-02 16:11:30 GMT 50.062138 9.071960 32,275 78 446 1792
2021-12-02 16:11:27 GMT 50.061905 9.058589 34,200 88 460 896
2021-12-02 16:11:24 GMT 50.061810 9.052066 34,150 88 459 896
2021-12-02 16:11:21 GMT 50.061577 9.040635 34,075 88 458 960
2021-12-02 16:11:18 GMT 50.061440 9.032766 33,925 76 442 1472
2021-12-02 16:11:15 GMT 50.061207 9.019033 33,975 88 457 896
2021-12-02 16:11:12 GMT 50.061127 9.012981 33,925 88 456 896
2021-12-02 16:11:09 GMT 50.060944 9.002790 33,925 88 455 960
2021-12-02 16:11:06 GMT 50.060555 8.981769 33,875 88 455 896
2021-12-02 16:11:03 GMT 50.060555 8.981769 33,825 88 454 1088
2021-12-02 16:11:00 GMT 50.060349 8.970771 33,650 88 453 1216
2021-12-02 16:10:57 GMT 50.060181 8.960835 33,725 88 453 1152
2021-12-02 16:10:54 GMT 50.060028 8.952846 33,650 87 449 1472
2021-12-02 16:10:51 GMT 50.059708 8.936511 33,500 88 452 1088
2021-12-02 16:10:48 GMT 50.059708 8.936511 33,475 88 452 1152
2021-12-02 16:10:45 GMT 50.059483 8.923942 33,475 88 451 1280
2021-12-02 16:10:43 GMT 50.059345 8.915851 33,350 88 451 1344
2021-12-02 16:10:40 GMT 50.059204 8.907744 33,350 88 451 1344
2021-12-02 16:10:37 GMT 50.059021 8.897625 33,325 88 451 1408
2021-12-02 16:10:34 GMT 50.058884 8.891120 33,225 88 450 1536
2021-12-02 16:10:32 GMT 50.058739 8.881852 33,050 88 451 1600
2021-12-02 16:10:29 GMT 50.058552 8.872277 32,275 78 446 1792
2021-12-02 16:10:26 GMT 50.058319 8.860028 33,000 87 450 1536
2021-12-02 16:10:23 GMT 50.058132 8.851343 32,925 86 449 1536
2021-12-02 16:10:20 GMT 50.057854 8.842435 32,850 85 449 1728
2021-12-02 16:10:17 GMT 50.057484 8.833008 32,800 85 449 1792
2021-12-02 16:10:14 GMT 50.056923 8.822096 32,675 84 449 1856
2021-12-02 16:10:10 GMT 50.056274 8.812264 32,575 83 449 1920
2021-12-02 16:10:07 GMT 50.054672 8.793038 32,125 77 447 1728
2021-12-02 16:10:04 GMT 50.054672 8.793038 32,350 81 448 1984
2021-12-02 16:10:02 GMT 50.052689 8.773919 32,275 79 447 2048
2021-12-02 16:09:59 GMT 50.052689 8.773919 32,125 79 447 1920
2021-12-02 16:09:56 GMT 50.051758 8.766273 32,050 78 446 1728
2021-12-02 16:09:53 GMT 50.050461 8.756754 31,975 76 446 1664
2021-12-02 16:09:50 GMT 50.048126 8.741142 31,900 76 446 1792
2021-12-02 16:09:47 GMT 50.048126 8.741142 31,900 76 446 1856
2021-12-02 16:09:44 GMT 50.046356 8.729603 31,775 76 447 1920
2021-12-02 16:09:41 GMT 50.044830 8.719820 31,625 76 447 1536
2021-12-02 16:09:38 GMT 50.043137 8.708544 29,925 76 431 1600
2021-12-02 16:09:34 GMT 50.041489 8.697847 31,425 76 446 1344
2021-12-02 16:09:32 GMT 50.040527 8.691559 31,400 76 444 1408
2021-12-02 16:09:29 GMT 50.039108 8.682307 31,375 76 444 1408
2021-12-02 16:09:26 GMT 50.037506 8.671755 31,300 76 444 1408
2021-12-02 16:09:23 GMT 50.035881 8.661161 31,200 76 443 1344
2021-12-02 16:09:20 GMT 50.034626 8.652698 31,125 76 442 1472
2021-12-02 16:09:17 GMT 50.033386 8.644722 31,125 76 442 1472
2021-12-02 16:09:14 GMT 50.032013 8.635615 31,050 76 442 1536
2021-12-02 16:09:12 GMT 50.031326 8.631062 30,975 76 442 1536
2021-12-02 16:09:09 GMT 50.029781 8.620927 30,825 76 441 1344
2021-12-02 16:09:06 GMT 50.028107 8.609792 30,750 76 440 1344
2021-12-02 16:09:03 GMT 50.027130 8.603557 30,750 76 440 1408
2021-12-02 16:09:01 GMT 50.025604 8.593188 30,100 76 440 1600
2021-12-02 16:08:58 GMT 50.024048 8.583069 29,650 76 439 1664
2021-12-02 16:08:55 GMT 50.023125 8.576982 30,550 76 439 1664
2021-12-02 16:08:52 GMT 50.021805 8.568179 30,450 76 439 1408
2021-12-02 16:08:49 GMT 50.020386 8.559072 30,375 76 438 1408
2021-12-02 16:08:46 GMT 50.018692 8.548086 30,300 76 438 1536
2021-12-02 16:08:43 GMT 50.017731 8.541798 30,225 76 438 1600
2021-12-02 16:08:41 GMT 50.016541 8.533847 30,225 76 437 1600
2021-12-02 16:08:38 GMT 50.015579 8.527631 30,175 76 437 1536
2021-12-02 16:08:35 GMT 50.013382 8.513392 30,050 76 437 1280
2021-12-02 16:08:32 GMT 50.010727 8.495973 29,975 76 436 1408
2021-12-02 16:08:29 GMT 50.009674 8.489396 29,925 76 436 1600
2021-12-02 16:08:26 GMT 50.009674 8.489396 29,800 76 435 1600
2021-12-02 16:08:23 GMT 50.008118 8.479349 29,725 76 434 1600
2021-12-02 16:08:21 GMT 50.007385 8.474434 29,650 76 434 1600
2021-12-02 16:08:18 GMT 50.005997 8.465560 29,525 76 433 1728
2021-12-02 16:08:15 GMT 50.004459 8.455613 28,975 76 427 1600
2021-12-02 16:08:12 GMT 50.001617 8.437277 29,425 76 432 1728
2021-12-02 16:08:09 GMT 49.999989 8.426662 29,275 76 431 1600
2021-12-02 16:08:06 GMT 49.999989 8.426662 29,275 76 431 1600
2021-12-02 16:08:02 GMT 49.998093 8.414515 29,225 76 431 1600
2021-12-02 16:07:59 GMT 49.995335 8.396821 28,750 76 426 1728
2021-12-02 16:07:56 GMT 49.995335 8.396821 29,000 76 430 1664
2021-12-02 16:07:53 GMT 49.993797 8.387097 28,925 76 429 1536
2021-12-02 16:07:50 GMT 49.992447 8.378560 28,700 76 428 1536
2021-12-02 16:07:47 GMT 49.991089 8.369775 28,575 76 423 1792
2021-12-02 16:07:43 GMT 49.989349 8.358716 28,675 76 426 1728
2021-12-02 16:07:41 GMT 49.988434 8.352790 28,575 76 425 1728
2021-12-02 16:07:38 GMT 49.987282 8.345378 28,500 76 423 1984
2021-12-02 16:07:35 GMT 49.985886 8.336396 28,350 76 422 2048
2021-12-02 16:07:32 GMT 49.984627 8.328453 28,350 76 424 1728
2021-12-02 16:07:30 GMT 49.983307 8.319831 28,275 76 423 1856
2021-12-02 16:07:27 GMT 49.981842 8.310434 27,925 76 422 1984
2021-12-02 16:07:24 GMT 49.980881 8.304291 28,025 76 422 2048
2021-12-02 16:07:21 GMT 49.978065 8.286512 27,975 76 422 2048
2021-12-02 16:07:18 GMT 49.978065 8.286512 27,450 76 422 2048
2021-12-02 16:07:15 GMT 49.976620 8.277159 26,050 76 419 1792
2021-12-02 16:07:12 GMT 49.975388 8.269163 27,725 76 422 2048
2021-12-02 16:07:10 GMT 49.974201 8.261645 27,600 76 422 2048
2021-12-02 16:07:07 GMT 49.972870 8.253190 27,425 76 421 1856
2021-12-02 16:07:04 GMT 49.971542 8.244516 27,400 76 421 1856
2021-12-02 16:07:01 GMT 49.970398 8.237289 27,300 76 420 2176
2021-12-02 16:06:58 GMT 49.968658 8.226236 27,175 76 420 2304
2021-12-02 16:06:55 GMT 49.967651 8.219797 26,925 76 414 2688
2021-12-02 16:06:52 GMT 49.966007 8.209311 26,950 76 420 1984
2021-12-02 16:06:50 GMT 49.965168 8.203744 26,925 76 419 1600
2021-12-02 16:06:47 GMT 49.963669 8.194211 26,450 76 417 1984
2021-12-02 16:06:44 GMT 49.962387 8.185971 26,775 76 417 2112
2021-12-02 16:06:41 GMT 49.959629 8.168706 26,600 76 417 2304
2021-12-02 16:06:38 GMT 49.959629 8.168706 26,500 76 417 2304
2021-12-02 16:06:27 GMT 49.954414 8.135450 26,050 76 417 2496
2021-12-02 16:06:24 GMT 49.951855 8.119193 25,925 76 417 2432
2021-12-02 16:06:21 GMT 49.951855 8.119193 25,925 76 417 2432
2021-12-02 16:06:18 GMT 49.950531 8.110874 25,700 76 417 2432
2021-12-02 16:06:15 GMT 49.948883 8.100465 25,375 76 415 2112
2021-12-02 16:06:12 GMT 49.947292 8.090540 25,500 76 415 2176
2021-12-02 16:06:08 GMT 49.945541 8.079432 25,350 76 414 2240
2021-12-02 16:06:05 GMT 49.944580 8.073361 25,125 76 413 2240
2021-12-02 16:06:02 GMT 49.942871 8.062554 25,125 76 414 2688
2021-12-02 16:06:00 GMT 49.941971 8.056737 25,000 76 414 2688
2021-12-02 16:05:57 GMT 49.940552 8.047630 24,750 76 414 2688
2021-12-02 16:05:54 GMT 49.939518 8.041324 24,750 76 414 2688
2021-12-02 16:05:51 GMT 49.938400 8.034049 24,500 76 414 2624
2021-12-02 16:05:49 GMT 49.937302 8.027247 24,500 76 414 2624
2021-12-02 16:05:46 GMT 49.935932 8.018609 24,375 76 414 2560
2021-12-02 16:05:43 GMT 49.934097 8.006937 24,275 76 414 2560
2021-12-02 16:05:40 GMT 49.931278 7.989139 24,075 76 414 2560
2021-12-02 16:05:36 GMT 49.931278 7.989139 23,975 76 414 2560
2021-12-02 16:05:33 GMT 49.929932 7.980339 23,875 76 414 2560
2021-12-02 16:05:30 GMT 49.927040 7.962119 23,675 76 414 2496
2021-12-02 16:05:27 GMT 49.927040 7.962119 23,175 76 410 2368
2021-12-02 16:05:24 GMT 49.925949 7.955113 23,450 76 412 2176
2021-12-02 16:05:21 GMT 49.924576 7.946440 23,375 76 412 2240
2021-12-02 16:05:19 GMT 49.923645 7.940517 23,300 76 411 2432
2021-12-02 16:05:16 GMT 49.921829 7.929093 23,175 76 410 2368
2021-12-02 16:05:13 GMT 49.920776 7.922227 22,575 76 409 2368
2021-12-02 16:05:10 GMT 49.919640 7.915130 22,925 76 408 2496
2021-12-02 16:05:07 GMT 49.917755 7.903362 22,775 76 407 2496
2021-12-02 16:05:04 GMT 49.916847 7.897463 22,675 76 407 2432
2021-12-02 16:05:01 GMT 49.915684 7.889891 22,625 76 407 2368
2021-12-02 16:04:58 GMT 49.914413 7.881968 22,450 76 405 2112
2021-12-02 16:04:55 GMT 49.912796 7.871630 22,325 76 404 2176
2021-12-02 16:04:52 GMT 49.911575 7.863970 22,150 76 402 2176
2021-12-02 16:04:49 GMT 49.910065 7.854430 22,150 76 402 2176
2021-12-02 16:04:45 GMT 49.908325 7.843299 21,950 76 400 2240
2021-12-02 16:04:42 GMT 49.906792 7.833475 21,850 76 400 2240
2021-12-02 16:04:39 GMT 49.905533 7.825518 21,725 76 397 1984
2021-12-02 16:04:36 GMT 49.904434 7.818652 21,525 76 397 1984
2021-12-02 16:04:33 GMT 49.903244 7.811135 21,575 76 396 1984
2021-12-02 16:04:30 GMT 49.901627 7.801035 21,525 75 395 1984
2021-12-02 16:04:26 GMT 49.899994 7.791088 21,300 75 392 1856
2021-12-02 16:04:23 GMT 49.898598 7.782255 21,250 76 390 1792
2021-12-02 16:04:20 GMT 49.897434 7.775203 21,200 76 389 1664
2021-12-02 16:04:17 GMT 49.895664 7.763845 21,050 76 386 1472
2021-12-02 16:04:14 GMT 49.893356 7.749337 21,000 76 382 1728
2021-12-02 16:04:10 GMT 49.893356 7.749337 20,925 76 381 1728
2021-12-02 16:04:08 GMT 49.892029 7.740952 20,825 76 379 1984
2021-12-02 16:04:05 GMT 49.890976 7.734447 20,825 76 379 1984
2021-12-02 16:04:02 GMT 49.889740 7.726930 20,600 76 376 2176
2021-12-02 16:03:59 GMT 49.888138 7.717028 20,500 75 374 2112
2021-12-02 16:03:56 GMT 49.887054 7.710175 20,300 75 369 1600
2021-12-02 16:03:53 GMT 49.885757 7.702211 20,300 75 369 1600
2021-12-02 16:03:50 GMT 49.884842 7.696646 20,250 75 369 1600
2021-12-02 16:03:48 GMT 49.884064 7.691658 20,150 75 365 1792
2021-12-02 16:03:45 GMT 49.882584 7.682635 20,100 75 365 1984
2021-12-02 16:03:42 GMT 49.881699 7.677216 20,000 75 363 2176
2021-12-02 16:03:39 GMT 49.880310 7.668602 19,950 75 362 2240
2021-12-02 16:03:36 GMT 49.879093 7.661257 19,750 75 358 2368
2021-12-02 16:03:33 GMT 49.876625 7.646039 19,625 75 357 2432
2021-12-02 16:03:30 GMT 49.876625 7.646039 19,525 75 356 2496
2021-12-02 16:03:28 GMT 49.875557 7.639581 19,425 75 355 2496
2021-12-02 16:03:25 GMT 49.874531 7.633494 19,300 75 354 2560
2021-12-02 16:03:22 GMT 49.873600 7.627778 19,225 75 352 2688
2021-12-02 16:03:19 GMT 49.872063 7.618499 18,825 75 349 3136
2021-12-02 16:03:16 GMT 49.870667 7.609888 18,800 75 350 2944
2021-12-02 16:03:13 GMT 49.869781 7.604766 18,750 75 348 3200
2021-12-02 16:03:10 GMT 49.868454 7.596612 18,675 75 348 3136
2021-12-02 16:03:07 GMT 49.867081 7.588156 18,450 75 348 3200
2021-12-02 16:03:04 GMT 49.865570 7.578832 18,275 75 348 3200
2021-12-02 16:03:00 GMT 49.864380 7.571604 18,125 75 347 3200
2021-12-02 16:02:58 GMT 49.864014 7.569291 17,975 76 347 3264
2021-12-02 16:02:55 GMT 49.862427 7.559559 17,850 75 346 3392
2021-12-02 16:02:52 GMT 49.860352 7.546740 17,250 76 345 3456
2021-12-02 16:02:49 GMT 49.860352 7.546740 17,550 75 346 3520
2021-12-02 16:02:47 GMT 49.859344 7.540452 17,400 75 345 3456
2021-12-02 16:02:43 GMT 49.857910 7.531499 16,725 76 344 3648
2021-12-02 16:02:40 GMT 49.856689 7.523972 17,000 76 344 3520
2021-12-02 16:02:38 GMT 49.855724 7.517915 16,800 76 344 3648
2021-12-02 16:02:35 GMT 49.854980 7.513312 16,650 76 344 3712
2021-12-02 16:02:32 GMT 49.854004 7.507225 16,450 76 344 3584
2021-12-02 16:02:29 GMT 49.852001 7.494606 16,325 76 344 3712
2021-12-02 16:02:27 GMT 49.852001 7.494606 16,050 76 343 3584
2021-12-02 16:02:24 GMT 49.850418 7.484733 16,000 76 343 3584
2021-12-02 16:02:21 GMT 49.849255 7.477607 15,825 76 343 3584
2021-12-02 16:02:18 GMT 49.848541 7.473088 15,525 75 342 3648
2021-12-02 16:02:15 GMT 49.847389 7.465952 15,375 76 341 3648
2021-12-02 16:02:12 GMT 49.846298 7.458994 15,275 76 341 3648
2021-12-02 16:02:09 GMT 49.845158 7.451922 15,150 76 341 3520
2021-12-02 16:02:07 GMT 49.844227 7.446207 14,950 76 341 3328
2021-12-02 16:02:04 GMT 49.843018 7.438486 14,775 76 341 3264
2021-12-02 16:02:01 GMT 49.842083 7.432696 14,700 76 339 3264
2021-12-02 16:01:58 GMT 49.840851 7.425095 14,525 76 338 3328
2021-12-02 16:01:54 GMT 49.838425 7.409917 14,100 76 336 3328
2021-12-02 16:01:51 GMT 49.837151 7.401890 14,100 76 336 3328
2021-12-02 16:01:48 GMT 49.837151 7.401890 13,975 76 335 3264
2021-12-02 16:01:45 GMT 49.835999 7.394666 13,725 76 334 3264
2021-12-02 16:01:42 GMT 49.834869 7.387712 13,475 75 333 3264
2021-12-02 16:01:39 GMT 49.833801 7.381150 13,425 75 333 3264
2021-12-02 16:01:37 GMT 49.832657 7.374139 13,300 75 332 3328
2021-12-02 16:01:34 GMT 49.831890 7.369302 13,100 75 331 3328
2021-12-02 16:01:31 GMT 49.830597 7.361418 13,025 75 329 3328
2021-12-02 16:01:27 GMT 49.829041 7.351950 12,750 75 328 3264
2021-12-02 16:01:24 GMT 49.828033 7.345734 12,550 75 326 3264
2021-12-02 16:01:20 GMT 49.826843 7.338506 12,450 75 326 3264
2021-12-02 16:01:17 GMT 49.825558 7.330627 12,250 75 325 3264
2021-12-02 16:01:13 GMT 49.824070 7.321645 11,975 75 322 3072
2021-12-02 16:01:10 GMT 49.822769 7.314003 11,700 75 319 3072
2021-12-02 16:01:07 GMT 49.821716 7.307787 11,525 75 318 3072
2021-12-02 16:01:04 GMT 49.820435 7.299909 11,525 75 315 2624
2021-12-02 16:01:01 GMT 49.819225 7.292843 11,350 75 312 1920
2021-12-02 16:00:58 GMT 49.818527 7.288761 11,300 75 307 1152
2021-12-02 16:00:55 GMT 49.817364 7.281931 10,750 75 303 1152
2021-12-02 16:00:52 GMT 49.816250 7.275250 11,175 75 296 1152
2021-12-02 16:00:49 GMT 49.815037 7.268124 11,125 75 292 1152
2021-12-02 16:00:46 GMT 49.813316 7.257657 11,075 75 284 1152
2021-12-02 16:00:43 GMT 49.813316 7.257657 11,025 75 280 1216
2021-12-02 16:00:40 GMT 49.812149 7.250615 10,925 75 276 1280
2021-12-02 16:00:37 GMT 49.811279 7.245628 10,925 76 268 1408
2021-12-02 16:00:34 GMT 49.810474 7.240807 10,875 76 268 1408
2021-12-02 16:00:31 GMT 49.809631 7.235075 10,300 81 262 1728
2021-12-02 16:00:28 GMT 49.808990 7.229799 10,675 84 261 2048
2021-12-02 16:00:25 GMT 49.808578 7.223511 10,575 88 259 2624
2021-12-02 16:00:22 GMT 49.808624 7.216861 10,425 96 259 3264
2021-12-02 16:00:18 GMT 49.810059 7.203617 10,150 102 261 3584
2021-12-02 16:00:15 GMT 49.810059 7.203617 10,000 105 262 3456
2021-12-02 16:00:11 GMT 49.811325 7.197852 9,825 112 263 3392
2021-12-02 16:00:07 GMT 49.815132 7.186692 9,400 125 265 3264
2021-12-02 16:00:04 GMT 49.815132 7.186692 9,175 138 264 3008
2021-12-02 16:00:01 GMT 49.817413 7.182015 9,175 132 265 3136
2021-12-02 15:59:58 GMT 49.820984 7.176313 9,000 142 263 2944
2021-12-02 15:59:54 GMT 49.823822 7.172844 8,900 146 262 2944
2021-12-02 15:59:50 GMT 49.829544 7.167929 8,600 157 259 2944
2021-12-02 15:59:47 GMT 49.831741 7.166628 8,100 213 234 3264
2021-12-02 15:59:41 GMT 49.838516 7.164459 8,250 177 253 3008
2021-12-02 15:59:37 GMT 49.844273 7.164645 8,000 186 249 3200
2021-12-02 15:59:32 GMT 49.848724 7.165833 7,725 197 244 3136
2021-12-02 15:59:29 GMT 49.851791 7.167134 7,450 207 239 3072
2021-12-02 15:59:26 GMT 49.854561 7.168876 7,225 211 237 3456
2021-12-02 15:59:23 GMT 49.857605 7.171181 7,350 211 237 3392
2021-12-02 15:59:20 GMT 49.860893 7.174146 7,125 212 235 3520
2021-12-02 15:59:16 GMT 49.864243 7.177413 6,925 213 234 3264
2021-12-02 15:59:13 GMT 49.866615 7.179714 6,700 214 232 3200
2021-12-02 15:59:10 GMT 49.870010 7.183179 6,575 215 231 3072
2021-12-02 15:59:07 GMT 49.872299 7.185565 6,450 215 228 2368
2021-12-02 15:59:04 GMT 49.875595 7.189106 6,300 215 225 2304
2021-12-02 15:59:01 GMT 49.878487 7.192111 6,175 215 221 2304
2021-12-02 15:58:56 GMT 49.882118 7.195971 5,975 215 218 2304
2021-12-02 15:58:53 GMT 49.884445 7.198420 5,875 215 211 1536
2021-12-02 15:58:50 GMT 49.887177 7.201394 5,825 216 208 1280
2021-12-02 15:58:46 GMT 49.892990 7.207754 5,700 215 189 1408
2021-12-02 15:58:42 GMT 49.892990 7.207754 5,675 215 189 1408
2021-12-02 15:58:37 GMT 49.897434 7.212450 5,500 215 178 2240
2021-12-02 15:58:33 GMT 49.899353 7.214548 5,325 216 175 3072
2021-12-02 15:58:30 GMT 49.901394 7.216756 5,225 216 175 3392
2021-12-02 15:58:26 GMT 49.904114 7.219680 4,900 215 176 3136
2021-12-02 15:58:23 GMT 49.905991 7.221704 4,750 215 176 3072
2021-12-02 15:58:20 GMT 49.908279 7.224161 4,675 215 176 3072
2021-12-02 15:58:15 GMT 49.911217 7.227297 4,450 215 176 3200
2021-12-02 15:58:11 GMT 49.913914 7.230192 4,250 214 175 2880
2021-12-02 15:58:08 GMT 49.915695 7.232112 4,100 215 176 2880
2021-12-02 15:57:59 GMT 49.921875 7.238400 3,650 212 174 3136
2021-12-02 15:57:49 GMT 49.929417 7.245483 3,100 212 172 2624
2021-12-02 15:57:39 GMT 49.935608 7.251483 2,675 212 162 2816
2021-12-02 15:57:29 GMT 49.941925 7.257337 2,150 212 161 2624
2021-12-02 15:57:18 GMT 49.948456 7.263670 1,900 213 138 192
2021-12-02 15:57:07 GMT 49.953949 7.269108 0 213 96 128
2021-12-02 15:56:59 GMT 49.956394 7.271520 0 213 53
2021-12-02 15:56:49 GMT 49.957592 7.272708 0 213 0
2021-12-02 15:56:34 GMT 49.957592 7.272714 0 213 0
2021-12-02 15:56:18 GMT 49.957592 7.272708 0 213 0
2021-12-02 15:56:08 GMT 49.957649 7.272714 0 236 4
2021-12-02 15:55:57 GMT 49.957699 7.272949 0 300 7
2021-12-02 15:55:48 GMT 49.957512 7.273491 0 298 10
2021-12-02 15:55:37 GMT 49.957302 7.273988 0 317 7
2021-12-02 15:54:46 GMT 49.957111 7.274232 0 323 0
2021-12-02 15:54:31 GMT 49.957115 7.274230 0 323 0
2021-12-02 15:52:59 GMT 49.957066 7.274286 0 326 8
2021-12-02 15:52:55 GMT 49.956928 7.274431 0 326 13
2021-12-02 15:52:45 GMT 49.956482 7.274883 0 326 10
2021-12-02 15:52:35 GMT 49.956184 7.275190 0 329 7
2021-12-02 15:52:25 GMT 49.955978 7.275389 0 343 4
2021-12-02 15:52:13 GMT 49.955833 7.275455 0 357 2
2021-12-02 15:51:55 GMT 49.955799 7.275473 0 2 0
2021-12-02 15:51:44 GMT 49.955750 7.275479 0 5 9
2021-12-02 15:51:35 GMT 49.955280 7.275226 0 30 14
2021-12-02 15:51:24 GMT 49.954647 7.274582 0 30 19
2021-12-02 15:51:13 GMT 49.953838 7.273780 0 30 20
2021-12-02 15:51:03 GMT 49.953087 7.273061 0 33 18
2021-12-02 15:50:53 GMT 49.952488 7.272443 0 33 14
We lost coverage of the aircraft here for a total of 7 minutes
2021-12-02 15:43:41 GMT 49.951797 7.271780 0 30 0
2021-12-02 15:43:38 GMT 49.951786 7.271780 0 30 1
2021-12-02 15:43:27 GMT 49.951721 7.271702 0 28 3
2021-12-02 15:43:18 GMT 49.951618 7.271612 0 25 3
2021-12-02 15:43:07 GMT 49.951515 7.271520 0 14 3
2021-12-02 15:42:57 GMT 49.951401 7.271449 0 348 3
2021-12-02 15:42:45 GMT 49.951263 7.271504 0 348 3
2021-12-02 15:42:36 GMT 49.951172 7.271558 0 5 3
We lost coverage of the aircraft here for a total of 11 minutes
2021-12-02 15:31:46 GMT 49.950966 7.271468 0 33 1
2021-12-02 15:31:37 GMT 49.950909 7.271413 0 33 4
2021-12-02 15:31:28 GMT 49.950760 7.271260 0 33 5
2021-12-02 15:31:18 GMT 49.950542 7.271034 0 36 6
2021-12-02 15:31:08 GMT 49.950336 7.270745 0 56 7
2021-12-02 15:30:57 GMT 49.950165 7.270329 0 53 7
2021-12-02 15:30:46 GMT 49.949924 7.269932 0 30 7
2021-12-02 15:30:37 GMT 49.949673 7.269679 0 33 7
2021-12-02 15:30:27 GMT 49.949455 7.269480 0 30 6
2021-12-02 15:30:17 GMT 49.949238 7.269238 0 30 6
2021-12-02 15:30:07 GMT 49.949020 7.269028 0 33 6
2021-12-02 15:29:55 GMT 49.948792 7.268793 0 33 5
2021-12-02 15:29:46 GMT 49.948643 7.268644 0 30 5
2021-12-02 15:29:36 GMT 49.948483 7.268486 0 30 4
2021-12-02 15:29:14 GMT 49.948368 7.268378 0 30 0
2021-12-02 15:29:06 GMT 49.948387 7.268384 0 30 3
2021-12-02 15:28:56 GMT 49.948479 7.268532 0 45 3
2021-12-02 15:28:46 GMT 49.948517 7.268718 0 70 3
2021-12-02 15:28:36 GMT 49.948490 7.268904 0 92 3
2021-12-02 15:28:26 GMT 49.948437 7.269082 0 112 3
2021-12-02 15:28:16 GMT 49.948376 7.269256 0 120 3
2021-12-02 15:28:04 GMT 49.948303 7.269460 0 118 3
2021-12-02 15:27:56 GMT 49.948269 7.269627 0 109 3
2021-12-02 15:27:43 GMT 49.948292 7.269850 0 81 3
2021-12-02 15:27:34 GMT 49.948368 7.269968 0 59 3

Making use of Plane Finder data

You are free to use the raw flight data, aircraft information and images provided in this report for your own purposes provided the data is correctly attributed to Plane Finder. We ask that you please credit Plane Finder and link to planefinder.net in close proximity to the content.

Optionally one of the following logos (no smaller then 150x24px) can be used and must link to planefinder.net

Embedding the Plane Finder map

You are welcome to embed the Plane Finder playback map on your website to offer visitors a more interactive experience. We suggest using the following HTML code:

<iframe src="//planefinder.net/data/report/FR2754-9H-QBG-7700-squawk-2021-12-02/map" width="800" height="600" seamless="seamless"></iframe>

Where our data comes from

Plane Finder has a global network of data feeds and antenna radars that receive data broadcast directly from aircraft. The primary technologies used are ADS-B and MLAT. We also show feeds from the FAA and a FLARM glider feed.

Click here to find out more about the Plane Finder network.

How we collect our data